<?xml version='1.0' encoding='UTF-8'?>
<gpx version="1.1" creator="https://www.komoot.de" xmlns="http://www.topografix.com/GPX/1/1" xmlns:xsi="http://www.w3.org/2001/XMLSchema-instance" xsi:schemaLocation="http://www.topografix.com/GPX/1/1 http://www.topografix.com/GPX/1/1/gpx.xsd">
  <metadata>
    <name>MTB-Rundstrecke 12: "Die Weinbergrunde"</name>
    <author>
      <link href="https://www.komoot.de">
        <text>komoot</text>
        <type>text/html</type>
      </link>
    </author>
  </metadata>
  <trk>
    <name>MTB-Rundstrecke 12: "Die Weinbergrunde"</name>
    <trkseg>
      <trkpt lat="50.165871" lon="10.005560">
        <ele>202.358609</ele>
        <time>2026-03-19T08:47:17.625Z</time>
      </trkpt>
      <trkpt lat="50.166044" lon="10.005411">
        <ele>202.358609</ele>
        <time>2026-03-19T08:47:28.622Z</time>
      </trkpt>
      <trkpt lat="50.166174" lon="10.005354">
        <ele>202.358609</ele>
        <time>2026-03-19T08:47:36.565Z</time>
      </trkpt>
      <trkpt lat="50.166417" lon="10.005306">
        <ele>202.358609</ele>
        <time>2026-03-19T08:47:51.888Z</time>
      </trkpt>
      <trkpt lat="50.166911" lon="10.005298">
        <ele>204.350907</ele>
        <time>2026-03-19T08:48:26.101Z</time>
      </trkpt>
      <trkpt lat="50.166941" lon="10.005271">
        <ele>204.751417</ele>
        <time>2026-03-19T08:48:29.178Z</time>
      </trkpt>
      <trkpt lat="50.167147" lon="10.005259">
        <ele>207.135673</ele>
        <time>2026-03-19T08:48:47.743Z</time>
      </trkpt>
      <trkpt lat="50.168017" lon="10.005593">
        <ele>217.497881</ele>
        <time>2026-03-19T08:50:09.529Z</time>
      </trkpt>
      <trkpt lat="50.168300" lon="10.005466">
        <ele>220.903604</ele>
        <time>2026-03-19T08:50:37.033Z</time>
      </trkpt>
      <trkpt lat="50.168300" lon="10.005466">
        <ele>220.903604</ele>
        <time>2026-03-19T08:50:37.043Z</time>
      </trkpt>
      <trkpt lat="50.168314" lon="10.005540">
        <ele>221.475241</ele>
        <time>2026-03-19T08:50:39.170Z</time>
      </trkpt>
      <trkpt lat="50.168562" lon="10.005318">
        <ele>224.901703</ele>
        <time>2026-03-19T08:50:51.475Z</time>
      </trkpt>
      <trkpt lat="50.168803" lon="10.004780">
        <ele>230.125778</ele>
        <time>2026-03-19T08:51:09.586Z</time>
      </trkpt>
      <trkpt lat="50.169034" lon="10.004010">
        <ele>236.891619</ele>
        <time>2026-03-19T08:51:33.064Z</time>
      </trkpt>
      <trkpt lat="50.169266" lon="10.003240">
        <ele>243.662712</ele>
        <time>2026-03-19T08:51:56.506Z</time>
      </trkpt>
      <trkpt lat="50.169282" lon="10.003259">
        <ele>243.912445</ele>
        <time>2026-03-19T08:51:57.390Z</time>
      </trkpt>
      <trkpt lat="50.169398" lon="10.003020">
        <ele>245.946058</ele>
        <time>2026-03-19T08:52:13.564Z</time>
      </trkpt>
      <trkpt lat="50.169515" lon="10.002912">
        <ele>246.883338</ele>
        <time>2026-03-19T08:52:24.748Z</time>
      </trkpt>
      <trkpt lat="50.169975" lon="10.002118">
        <ele>251.612085</ele>
        <time>2026-03-19T08:53:14.669Z</time>
      </trkpt>
      <trkpt lat="50.170737" lon="10.001285">
        <ele>257.907472</ele>
        <time>2026-03-19T08:54:08.273Z</time>
      </trkpt>
      <trkpt lat="50.170574" lon="10.001203">
        <ele>257.888026</ele>
        <time>2026-03-19T08:54:16.514Z</time>
      </trkpt>
      <trkpt lat="50.170328" lon="10.001256">
        <ele>257.859828</ele>
        <time>2026-03-19T08:54:27.455Z</time>
      </trkpt>
      <trkpt lat="50.169819" lon="10.001653">
        <ele>257.795219</ele>
        <time>2026-03-19T08:54:48.330Z</time>
      </trkpt>
      <trkpt lat="50.169157" lon="10.002369">
        <ele>257.685725</ele>
        <time>2026-03-19T08:55:09.736Z</time>
      </trkpt>
      <trkpt lat="50.168261" lon="10.003190">
        <ele>256.039922</ele>
        <time>2026-03-19T08:55:34.558Z</time>
      </trkpt>
      <trkpt lat="50.168150" lon="10.003292">
        <ele>255.835883</ele>
        <time>2026-03-19T08:55:38.015Z</time>
      </trkpt>
      <trkpt lat="50.167834" lon="10.003428">
        <ele>255.316621</ele>
        <time>2026-03-19T08:55:48.075Z</time>
      </trkpt>
      <trkpt lat="50.167620" lon="10.003315">
        <ele>254.958748</ele>
        <time>2026-03-19T08:55:57.549Z</time>
      </trkpt>
      <trkpt lat="50.167913" lon="10.001176">
        <ele>264.524903</ele>
        <time>2026-03-19T08:57:39.560Z</time>
      </trkpt>
      <trkpt lat="50.168007" lon="10.000158">
        <ele>269.097645</ele>
        <time>2026-03-19T08:58:28.432Z</time>
      </trkpt>
      <trkpt lat="50.168028" lon="9.999937">
        <ele>269.991285</ele>
        <time>2026-03-19T08:58:37.858Z</time>
      </trkpt>
      <trkpt lat="50.168028" lon="9.999092">
        <ele>273.371156</ele>
        <time>2026-03-19T08:59:10.485Z</time>
      </trkpt>
      <trkpt lat="50.168096" lon="9.997638">
        <ele>279.192909</ele>
        <time>2026-03-19T09:00:05.964Z</time>
      </trkpt>
      <trkpt lat="50.168081" lon="9.996680">
        <ele>282.658030</ele>
        <time>2026-03-19T09:00:44.666Z</time>
      </trkpt>
      <trkpt lat="50.168104" lon="9.996125">
        <ele>284.669081</ele>
        <time>2026-03-19T09:01:07.218Z</time>
      </trkpt>
      <trkpt lat="50.168142" lon="9.993075">
        <ele>293.542996</ele>
        <time>2026-03-19T09:02:59.261Z</time>
      </trkpt>
      <trkpt lat="50.167760" lon="9.992026">
        <ele>295.933594</ele>
        <time>2026-03-19T09:03:31.820Z</time>
      </trkpt>
      <trkpt lat="50.167532" lon="9.991514">
        <ele>295.663840</ele>
        <time>2026-03-19T09:03:44.905Z</time>
      </trkpt>
      <trkpt lat="50.167158" lon="9.990406">
        <ele>295.122045</ele>
        <time>2026-03-19T09:04:07.999Z</time>
      </trkpt>
      <trkpt lat="50.166852" lon="9.989405">
        <ele>294.532946</ele>
        <time>2026-03-19T09:04:27.473Z</time>
      </trkpt>
      <trkpt lat="50.166387" lon="9.987724">
        <ele>293.181220</ele>
        <time>2026-03-19T09:05:00.286Z</time>
      </trkpt>
      <trkpt lat="50.166131" lon="9.986994">
        <ele>293.066588</ele>
        <time>2026-03-19T09:05:17.030Z</time>
      </trkpt>
      <trkpt lat="50.166013" lon="9.986704">
        <ele>293.619321</ele>
        <time>2026-03-19T09:05:25.119Z</time>
      </trkpt>
      <trkpt lat="50.165749" lon="9.985883">
        <ele>295.097263</ele>
        <time>2026-03-19T09:05:50.439Z</time>
      </trkpt>
      <trkpt lat="50.165489" lon="9.984976">
        <ele>296.695940</ele>
        <time>2026-03-19T09:06:23.383Z</time>
      </trkpt>
      <trkpt lat="50.164864" lon="9.982908">
        <ele>300.940650</ele>
        <time>2026-03-19T09:07:38.244Z</time>
      </trkpt>
      <trkpt lat="50.164756" lon="9.982494">
        <ele>301.789722</ele>
        <time>2026-03-19T09:07:50.071Z</time>
      </trkpt>
      <trkpt lat="50.164750" lon="9.982333">
        <ele>302.096049</ele>
        <time>2026-03-19T09:07:54.062Z</time>
      </trkpt>
      <trkpt lat="50.164822" lon="9.982134">
        <ele>302.530161</ele>
        <time>2026-03-19T09:07:59.536Z</time>
      </trkpt>
      <trkpt lat="50.164412" lon="9.981764">
        <ele>302.636490</ele>
        <time>2026-03-19T09:08:15.517Z</time>
      </trkpt>
      <trkpt lat="50.162284" lon="9.980147">
        <ele>302.605001</ele>
        <time>2026-03-19T09:09:29.375Z</time>
      </trkpt>
      <trkpt lat="50.161685" lon="9.979578">
        <ele>302.460278</ele>
        <time>2026-03-19T09:09:51.376Z</time>
      </trkpt>
      <trkpt lat="50.161519" lon="9.979421">
        <ele>302.335889</ele>
        <time>2026-03-19T09:09:57.367Z</time>
      </trkpt>
      <trkpt lat="50.162154" lon="9.979271">
        <ele>301.763938</ele>
        <time>2026-03-19T09:10:16.921Z</time>
      </trkpt>
      <trkpt lat="50.163388" lon="9.978978">
        <ele>300.269811</ele>
        <time>2026-03-19T09:10:52.998Z</time>
      </trkpt>
      <trkpt lat="50.163924" lon="9.979612">
        <ele>298.474636</ele>
        <time>2026-03-19T09:11:11.341Z</time>
      </trkpt>
      <trkpt lat="50.164264" lon="9.979941">
        <ele>297.406802</ele>
        <time>2026-03-19T09:11:21.846Z</time>
      </trkpt>
      <trkpt lat="50.165205" lon="9.980574">
        <ele>294.095325</ele>
        <time>2026-03-19T09:11:47.335Z</time>
      </trkpt>
      <trkpt lat="50.166068" lon="9.980945">
        <ele>290.701455</ele>
        <time>2026-03-19T09:12:09.418Z</time>
      </trkpt>
      <trkpt lat="50.166244" lon="9.980827">
        <ele>289.975212</ele>
        <time>2026-03-19T09:12:14.326Z</time>
      </trkpt>
      <trkpt lat="50.166433" lon="9.980642">
        <ele>289.170741</ele>
        <time>2026-03-19T09:12:20.185Z</time>
      </trkpt>
      <trkpt lat="50.166590" lon="9.980312">
        <ele>288.613786</ele>
        <time>2026-03-19T09:12:27.179Z</time>
      </trkpt>
      <trkpt lat="50.166598" lon="9.980061">
        <ele>288.273283</ele>
        <time>2026-03-19T09:12:31.543Z</time>
      </trkpt>
      <trkpt lat="50.166376" lon="9.979538">
        <ele>287.423200</ele>
        <time>2026-03-19T09:12:42.705Z</time>
      </trkpt>
      <trkpt lat="50.165131" lon="9.977861">
        <ele>283.691830</ele>
        <time>2026-03-19T09:13:28.384Z</time>
      </trkpt>
      <trkpt lat="50.164690" lon="9.976976">
        <ele>281.911569</ele>
        <time>2026-03-19T09:13:47.419Z</time>
      </trkpt>
      <trkpt lat="50.164475" lon="9.976192">
        <ele>280.352751</ele>
        <time>2026-03-19T09:14:01.525Z</time>
      </trkpt>
      <trkpt lat="50.164296" lon="9.975132">
        <ele>277.727415</ele>
        <time>2026-03-19T09:14:19.127Z</time>
      </trkpt>
      <trkpt lat="50.164160" lon="9.974578">
        <ele>276.306538</ele>
        <time>2026-03-19T09:14:28.378Z</time>
      </trkpt>
      <trkpt lat="50.164158" lon="9.974565">
        <ele>276.274519</ele>
        <time>2026-03-19T09:14:28.577Z</time>
      </trkpt>
      <trkpt lat="50.164037" lon="9.973786">
        <ele>274.354807</ele>
        <time>2026-03-19T09:14:41.100Z</time>
      </trkpt>
      <trkpt lat="50.163907" lon="9.972731">
        <ele>274.373099</ele>
        <time>2026-03-19T09:15:00.073Z</time>
      </trkpt>
      <trkpt lat="50.163901" lon="9.972504">
        <ele>274.403551</ele>
        <time>2026-03-19T09:15:04.817Z</time>
      </trkpt>
      <trkpt lat="50.163714" lon="9.972645">
        <ele>274.447002</ele>
        <time>2026-03-19T09:15:12.571Z</time>
      </trkpt>
      <trkpt lat="50.163522" lon="9.972696">
        <ele>274.487752</ele>
        <time>2026-03-19T09:15:20.806Z</time>
      </trkpt>
      <trkpt lat="50.163314" lon="9.972587">
        <ele>274.533659</ele>
        <time>2026-03-19T09:15:30.809Z</time>
      </trkpt>
      <trkpt lat="50.163175" lon="9.972381">
        <ele>274.573761</ele>
        <time>2026-03-19T09:15:39.847Z</time>
      </trkpt>
      <trkpt lat="50.162735" lon="9.971474">
        <ele>274.371999</ele>
        <time>2026-03-19T09:16:14.116Z</time>
      </trkpt>
      <trkpt lat="50.161430" lon="9.967748">
        <ele>269.682026</ele>
        <time>2026-03-19T09:17:28.432Z</time>
      </trkpt>
      <trkpt lat="50.161145" lon="9.967223">
        <ele>268.118806</ele>
        <time>2026-03-19T09:17:39.061Z</time>
      </trkpt>
      <trkpt lat="50.160750" lon="9.966800">
        <ele>265.369192</ele>
        <time>2026-03-19T09:17:50.310Z</time>
      </trkpt>
      <trkpt lat="50.160730" lon="9.966786">
        <ele>265.243375</ele>
        <time>2026-03-19T09:17:50.827Z</time>
      </trkpt>
      <trkpt lat="50.159859" lon="9.966206">
        <ele>259.807817</ele>
        <time>2026-03-19T09:18:12.838Z</time>
      </trkpt>
      <trkpt lat="50.159302" lon="9.966221">
        <ele>256.033543</ele>
        <time>2026-03-19T09:18:25.908Z</time>
      </trkpt>
      <trkpt lat="50.158744" lon="9.966052">
        <ele>251.733321</ele>
        <time>2026-03-19T09:18:38.969Z</time>
      </trkpt>
      <trkpt lat="50.158426" lon="9.965991">
        <ele>249.309427</ele>
        <time>2026-03-19T09:18:46.156Z</time>
      </trkpt>
      <trkpt lat="50.157776" lon="9.965785">
        <ele>244.253274</ele>
        <time>2026-03-19T09:19:00.676Z</time>
      </trkpt>
      <trkpt lat="50.157487" lon="9.965660">
        <ele>241.818706</ele>
        <time>2026-03-19T09:19:07.155Z</time>
      </trkpt>
      <trkpt lat="50.157127" lon="9.965574">
        <ele>238.862129</ele>
        <time>2026-03-19T09:19:14.813Z</time>
      </trkpt>
      <trkpt lat="50.156852" lon="9.965576">
        <ele>236.629605</ele>
        <time>2026-03-19T09:19:20.728Z</time>
      </trkpt>
      <trkpt lat="50.157034" lon="9.965333">
        <ele>234.685264</ele>
        <time>2026-03-19T09:19:26.143Z</time>
      </trkpt>
      <trkpt lat="50.156941" lon="9.965030">
        <ele>232.937786</ele>
        <time>2026-03-19T09:19:31.106Z</time>
      </trkpt>
      <trkpt lat="50.156931" lon="9.965000">
        <ele>232.761895</ele>
        <time>2026-03-19T09:19:31.606Z</time>
      </trkpt>
      <trkpt lat="50.156952" lon="9.964925">
        <ele>232.336178</ele>
        <time>2026-03-19T09:19:32.853Z</time>
      </trkpt>
      <trkpt lat="50.156928" lon="9.964834">
        <ele>231.824334</ele>
        <time>2026-03-19T09:19:34.334Z</time>
      </trkpt>
      <trkpt lat="50.156938" lon="9.964753">
        <ele>231.395286</ele>
        <time>2026-03-19T09:19:35.588Z</time>
      </trkpt>
      <trkpt lat="50.156900" lon="9.964668">
        <ele>230.856192</ele>
        <time>2026-03-19T09:19:37.205Z</time>
      </trkpt>
      <trkpt lat="50.156907" lon="9.964582">
        <ele>230.405292</ele>
        <time>2026-03-19T09:19:38.540Z</time>
      </trkpt>
      <trkpt lat="50.156866" lon="9.964533">
        <ele>230.104152</ele>
        <time>2026-03-19T09:19:39.821Z</time>
      </trkpt>
      <trkpt lat="50.156893" lon="9.964436">
        <ele>229.838897</ele>
        <time>2026-03-19T09:19:41.493Z</time>
      </trkpt>
      <trkpt lat="50.156906" lon="9.964295">
        <ele>229.481611</ele>
        <time>2026-03-19T09:19:43.777Z</time>
      </trkpt>
      <trkpt lat="50.156903" lon="9.963822">
        <ele>228.295218</ele>
        <time>2026-03-19T09:19:51.314Z</time>
      </trkpt>
      <trkpt lat="50.156566" lon="9.963904">
        <ele>226.960025</ele>
        <time>2026-03-19T09:20:00.049Z</time>
      </trkpt>
      <trkpt lat="50.156257" lon="9.963904">
        <ele>225.750379</ele>
        <time>2026-03-19T09:20:08.704Z</time>
      </trkpt>
      <trkpt lat="50.154218" lon="9.963496">
        <ele>216.644845</ele>
        <time>2026-03-19T09:20:59.312Z</time>
      </trkpt>
      <trkpt lat="50.153576" lon="9.963236">
        <ele>213.708425</ele>
        <time>2026-03-19T09:21:14.864Z</time>
      </trkpt>
      <trkpt lat="50.153348" lon="9.963337">
        <ele>212.748022</ele>
        <time>2026-03-19T09:21:20.545Z</time>
      </trkpt>
      <trkpt lat="50.153076" lon="9.963377">
        <ele>211.640933</ele>
        <time>2026-03-19T09:21:27.100Z</time>
      </trkpt>
      <trkpt lat="50.152604" lon="9.963344">
        <ele>209.726364</ele>
        <time>2026-03-19T09:21:38.833Z</time>
      </trkpt>
      <trkpt lat="50.152030" lon="9.963209">
        <ele>207.457042</ele>
        <time>2026-03-19T09:21:54.096Z</time>
      </trkpt>
      <trkpt lat="50.151818" lon="9.963116">
        <ele>207.255529</ele>
        <time>2026-03-19T09:22:00.176Z</time>
      </trkpt>
      <trkpt lat="50.151304" lon="9.962970">
        <ele>206.777456</ele>
        <time>2026-03-19T09:22:15.242Z</time>
      </trkpt>
      <trkpt lat="50.150913" lon="9.962912">
        <ele>206.418050</ele>
        <time>2026-03-19T09:22:27.117Z</time>
      </trkpt>
      <trkpt lat="50.150734" lon="9.962880">
        <ele>206.253181</ele>
        <time>2026-03-19T09:22:30.399Z</time>
      </trkpt>
      <trkpt lat="50.150521" lon="9.962832">
        <ele>206.056249</ele>
        <time>2026-03-19T09:22:34.506Z</time>
      </trkpt>
      <trkpt lat="50.150381" lon="9.962720">
        <ele>205.912288</ele>
        <time>2026-03-19T09:22:37.581Z</time>
      </trkpt>
      <trkpt lat="50.150085" lon="9.962394">
        <ele>205.241085</ele>
        <time>2026-03-19T09:22:45.037Z</time>
      </trkpt>
      <trkpt lat="50.149922" lon="9.961989">
        <ele>204.586464</ele>
        <time>2026-03-19T09:22:51.192Z</time>
      </trkpt>
      <trkpt lat="50.149833" lon="9.961715">
        <ele>204.165992</ele>
        <time>2026-03-19T09:22:54.879Z</time>
      </trkpt>
      <trkpt lat="50.149634" lon="9.960941">
        <ele>203.024474</ele>
        <time>2026-03-19T09:23:03.027Z</time>
      </trkpt>
      <trkpt lat="50.149348" lon="9.960991">
        <ele>202.409735</ele>
        <time>2026-03-19T09:23:07.033Z</time>
      </trkpt>
      <trkpt lat="50.149144" lon="9.960986">
        <ele>201.931247</ele>
        <time>2026-03-19T09:23:09.766Z</time>
      </trkpt>
      <trkpt lat="50.148914" lon="9.960929">
        <ele>200.338692</ele>
        <time>2026-03-19T09:23:12.769Z</time>
      </trkpt>
      <trkpt lat="50.148782" lon="9.960862">
        <ele>199.389469</ele>
        <time>2026-03-19T09:23:14.527Z</time>
      </trkpt>
      <trkpt lat="50.148568" lon="9.960741">
        <ele>197.832943</ele>
        <time>2026-03-19T09:23:17.360Z</time>
      </trkpt>
      <trkpt lat="50.148406" lon="9.960577">
        <ele>196.512426</ele>
        <time>2026-03-19T09:23:19.737Z</time>
      </trkpt>
      <trkpt lat="50.147946" lon="9.959844">
        <ele>192.016551</ele>
        <time>2026-03-19T09:23:27.839Z</time>
      </trkpt>
      <trkpt lat="50.147883" lon="9.959732">
        <ele>191.363487</ele>
        <time>2026-03-19T09:23:29.042Z</time>
      </trkpt>
      <trkpt lat="50.147600" lon="9.959388">
        <ele>189.288686</ele>
        <time>2026-03-19T09:23:33.604Z</time>
      </trkpt>
      <trkpt lat="50.147197" lon="9.959013">
        <ele>187.630346</ele>
        <time>2026-03-19T09:23:39.783Z</time>
      </trkpt>
      <trkpt lat="50.146805" lon="9.958597">
        <ele>185.954869</ele>
        <time>2026-03-19T09:23:46.538Z</time>
      </trkpt>
      <trkpt lat="50.146666" lon="9.958471">
        <ele>185.386724</ele>
        <time>2026-03-19T09:23:48.978Z</time>
      </trkpt>
      <trkpt lat="50.146339" lon="9.958173">
        <ele>184.048346</ele>
        <time>2026-03-19T09:23:54.975Z</time>
      </trkpt>
      <trkpt lat="50.146264" lon="9.958110">
        <ele>183.747306</ele>
        <time>2026-03-19T09:23:56.376Z</time>
      </trkpt>
      <trkpt lat="50.146170" lon="9.958041">
        <ele>183.380157</ele>
        <time>2026-03-19T09:23:58.085Z</time>
      </trkpt>
      <trkpt lat="50.145941" lon="9.958558">
        <ele>183.247542</ele>
        <time>2026-03-19T09:24:10.037Z</time>
      </trkpt>
      <trkpt lat="50.145655" lon="9.958631">
        <ele>183.181618</ele>
        <time>2026-03-19T09:24:15.349Z</time>
      </trkpt>
      <trkpt lat="50.144975" lon="9.958892">
        <ele>183.022320</ele>
        <time>2026-03-19T09:24:28.991Z</time>
      </trkpt>
      <trkpt lat="50.144694" lon="9.959013">
        <ele>182.956009</ele>
        <time>2026-03-19T09:24:35.120Z</time>
      </trkpt>
      <trkpt lat="50.144663" lon="9.959079">
        <ele>182.944080</ele>
        <time>2026-03-19T09:24:36.239Z</time>
      </trkpt>
      <trkpt lat="50.144674" lon="9.959366">
        <ele>182.954122</ele>
        <time>2026-03-19T09:24:40.154Z</time>
      </trkpt>
      <trkpt lat="50.144824" lon="9.960062">
        <ele>183.069395</ele>
        <time>2026-03-19T09:24:50.103Z</time>
      </trkpt>
      <trkpt lat="50.144824" lon="9.960144">
        <ele>183.082267</ele>
        <time>2026-03-19T09:24:51.219Z</time>
      </trkpt>
      <trkpt lat="50.144813" lon="9.960192">
        <ele>183.090269</ele>
        <time>2026-03-19T09:24:51.914Z</time>
      </trkpt>
      <trkpt lat="50.144749" lon="9.960311">
        <ele>183.114657</ele>
        <time>2026-03-19T09:24:53.969Z</time>
      </trkpt>
      <trkpt lat="50.143026" lon="9.961367">
        <ele>183.575540</ele>
        <time>2026-03-19T09:25:31.191Z</time>
      </trkpt>
      <trkpt lat="50.140367" lon="9.962250">
        <ele>184.316184</ele>
        <time>2026-03-19T09:26:27.438Z</time>
      </trkpt>
      <trkpt lat="50.140290" lon="9.962287">
        <ele>184.332772</ele>
        <time>2026-03-19T09:26:28.996Z</time>
      </trkpt>
      <trkpt lat="50.140212" lon="9.962414">
        <ele>184.329114</ele>
        <time>2026-03-19T09:26:31.186Z</time>
      </trkpt>
      <trkpt lat="50.140203" lon="9.962486">
        <ele>184.327589</ele>
        <time>2026-03-19T09:26:32.091Z</time>
      </trkpt>
      <trkpt lat="50.140299" lon="9.963301">
        <ele>184.310359</ele>
        <time>2026-03-19T09:26:42.251Z</time>
      </trkpt>
      <trkpt lat="50.139820" lon="9.963621">
        <ele>184.293454</ele>
        <time>2026-03-19T09:26:52.087Z</time>
      </trkpt>
      <trkpt lat="50.138066" lon="9.964909">
        <ele>184.174096</ele>
        <time>2026-03-19T09:27:28.765Z</time>
      </trkpt>
      <trkpt lat="50.137655" lon="9.965280">
        <ele>184.142861</ele>
        <time>2026-03-19T09:27:37.778Z</time>
      </trkpt>
      <trkpt lat="50.137184" lon="9.965848">
        <ele>184.145496</ele>
        <time>2026-03-19T09:27:49.142Z</time>
      </trkpt>
      <trkpt lat="50.136950" lon="9.966243">
        <ele>184.147022</ele>
        <time>2026-03-19T09:27:55.754Z</time>
      </trkpt>
      <trkpt lat="50.136755" lon="9.966634">
        <ele>184.148427</ele>
        <time>2026-03-19T09:28:01.829Z</time>
      </trkpt>
      <trkpt lat="50.136594" lon="9.967029">
        <ele>184.149755</ele>
        <time>2026-03-19T09:28:07.613Z</time>
      </trkpt>
      <trkpt lat="50.136279" lon="9.967988">
        <ele>184.306619</ele>
        <time>2026-03-19T09:28:21.324Z</time>
      </trkpt>
      <trkpt lat="50.136088" lon="9.968702">
        <ele>184.462178</ele>
        <time>2026-03-19T09:28:31.468Z</time>
      </trkpt>
      <trkpt lat="50.136002" lon="9.969161">
        <ele>184.558328</ele>
        <time>2026-03-19T09:28:37.904Z</time>
      </trkpt>
      <trkpt lat="50.135981" lon="9.969526">
        <ele>184.632011</ele>
        <time>2026-03-19T09:28:42.990Z</time>
      </trkpt>
      <trkpt lat="50.135983" lon="9.970352">
        <ele>184.960275</ele>
        <time>2026-03-19T09:28:54.701Z</time>
      </trkpt>
      <trkpt lat="50.136004" lon="9.970722">
        <ele>185.180422</ele>
        <time>2026-03-19T09:28:59.751Z</time>
      </trkpt>
      <trkpt lat="50.136182" lon="9.971509">
        <ele>185.675042</ele>
        <time>2026-03-19T09:29:10.693Z</time>
      </trkpt>
      <trkpt lat="50.136200" lon="9.971622">
        <ele>185.744050</ele>
        <time>2026-03-19T09:29:12.152Z</time>
      </trkpt>
      <trkpt lat="50.135894" lon="9.971847">
        <ele>186.056844</ele>
        <time>2026-03-19T09:29:19.903Z</time>
      </trkpt>
      <trkpt lat="50.135404" lon="9.972305">
        <ele>187.117596</ele>
        <time>2026-03-19T09:29:37.179Z</time>
      </trkpt>
      <trkpt lat="50.135318" lon="9.972290">
        <ele>187.403408</ele>
        <time>2026-03-19T09:29:40.244Z</time>
      </trkpt>
      <trkpt lat="50.135237" lon="9.972371">
        <ele>187.721176</ele>
        <time>2026-03-19T09:29:43.580Z</time>
      </trkpt>
      <trkpt lat="50.134641" lon="9.973002">
        <ele>190.100129</ele>
        <time>2026-03-19T09:30:08.522Z</time>
      </trkpt>
      <trkpt lat="50.134490" lon="9.973241">
        <ele>190.810579</ele>
        <time>2026-03-19T09:30:16.423Z</time>
      </trkpt>
      <trkpt lat="50.134485" lon="9.973434">
        <ele>191.219506</ele>
        <time>2026-03-19T09:30:21.357Z</time>
      </trkpt>
      <trkpt lat="50.134728" lon="9.974406">
        <ele>193.981961</ele>
        <time>2026-03-19T09:30:49.879Z</time>
      </trkpt>
      <trkpt lat="50.134712" lon="9.974576">
        <ele>194.527216</ele>
        <time>2026-03-19T09:30:54.774Z</time>
      </trkpt>
      <trkpt lat="50.134759" lon="9.974642">
        <ele>194.840278</ele>
        <time>2026-03-19T09:30:57.226Z</time>
      </trkpt>
      <trkpt lat="50.134935" lon="9.975362">
        <ele>197.285593</ele>
        <time>2026-03-19T09:31:17.730Z</time>
      </trkpt>
      <trkpt lat="50.135224" lon="9.976037">
        <ele>199.861488</ele>
        <time>2026-03-19T09:31:42.162Z</time>
      </trkpt>
      <trkpt lat="50.135557" lon="9.976703">
        <ele>202.700457</ele>
        <time>2026-03-19T09:32:08.207Z</time>
      </trkpt>
      <trkpt lat="50.135931" lon="9.977403">
        <ele>205.940029</ele>
        <time>2026-03-19T09:32:33.368Z</time>
      </trkpt>
      <trkpt lat="50.136468" lon="9.978660">
        <ele>211.234354</ele>
        <time>2026-03-19T09:33:22.231Z</time>
      </trkpt>
      <trkpt lat="50.137054" lon="9.980026">
        <ele>213.106376</ele>
        <time>2026-03-19T09:34:06.407Z</time>
      </trkpt>
      <trkpt lat="50.137214" lon="9.980582">
        <ele>213.800489</ele>
        <time>2026-03-19T09:34:13.903Z</time>
      </trkpt>
      <trkpt lat="50.137403" lon="9.980471">
        <ele>214.159321</ele>
        <time>2026-03-19T09:34:16.867Z</time>
      </trkpt>
      <trkpt lat="50.137516" lon="9.980485">
        <ele>214.360739</ele>
        <time>2026-03-19T09:34:18.477Z</time>
      </trkpt>
      <trkpt lat="50.137660" lon="9.980562">
        <ele>213.766061</ele>
        <time>2026-03-19T09:34:20.502Z</time>
      </trkpt>
      <trkpt lat="50.137978" lon="9.980835">
        <ele>212.052890</ele>
        <time>2026-03-19T09:34:25.103Z</time>
      </trkpt>
      <trkpt lat="50.138403" lon="9.981296">
        <ele>209.609743</ele>
        <time>2026-03-19T09:34:31.583Z</time>
      </trkpt>
      <trkpt lat="50.138570" lon="9.981535">
        <ele>208.540128</ele>
        <time>2026-03-19T09:34:34.592Z</time>
      </trkpt>
      <trkpt lat="50.139756" lon="9.983328">
        <ele>203.832322</ele>
        <time>2026-03-19T09:34:59.082Z</time>
      </trkpt>
      <trkpt lat="50.140049" lon="9.983911">
        <ele>202.931986</ele>
        <time>2026-03-19T09:35:07.319Z</time>
      </trkpt>
      <trkpt lat="50.140758" lon="9.985766">
        <ele>201.737451</ele>
        <time>2026-03-19T09:35:31.761Z</time>
      </trkpt>
      <trkpt lat="50.140834" lon="9.985918">
        <ele>201.656353</ele>
        <time>2026-03-19T09:35:33.905Z</time>
      </trkpt>
      <trkpt lat="50.140911" lon="9.985996">
        <ele>201.596096</ele>
        <time>2026-03-19T09:35:35.450Z</time>
      </trkpt>
      <trkpt lat="50.141011" lon="9.986169">
        <ele>201.498095</ele>
        <time>2026-03-19T09:35:39.862Z</time>
      </trkpt>
      <trkpt lat="50.141555" lon="9.986478">
        <ele>201.394204</ele>
        <time>2026-03-19T09:35:57.094Z</time>
      </trkpt>
      <trkpt lat="50.142034" lon="9.987439">
        <ele>201.603687</ele>
        <time>2026-03-19T09:36:22.028Z</time>
      </trkpt>
      <trkpt lat="50.142496" lon="9.988589">
        <ele>201.931633</ele>
        <time>2026-03-19T09:36:54.606Z</time>
      </trkpt>
      <trkpt lat="50.143216" lon="9.990975">
        <ele>203.448750</ele>
        <time>2026-03-19T09:37:56.042Z</time>
      </trkpt>
      <trkpt lat="50.143301" lon="9.991395">
        <ele>203.698289</ele>
        <time>2026-03-19T09:38:05.712Z</time>
      </trkpt>
      <trkpt lat="50.143754" lon="9.992940">
        <ele>204.660885</ele>
        <time>2026-03-19T09:38:43.543Z</time>
      </trkpt>
      <trkpt lat="50.143978" lon="9.994046">
        <ele>206.050525</ele>
        <time>2026-03-19T09:39:12.373Z</time>
      </trkpt>
      <trkpt lat="50.143978" lon="9.994046">
        <ele>206.050525</ele>
        <time>2026-03-19T09:39:12.383Z</time>
      </trkpt>
      <trkpt lat="50.143851" lon="9.994431">
        <ele>206.864732</ele>
        <time>2026-03-19T09:39:24.303Z</time>
      </trkpt>
      <trkpt lat="50.143652" lon="9.994731">
        <ele>207.676605</ele>
        <time>2026-03-19T09:39:36.827Z</time>
      </trkpt>
      <trkpt lat="50.141345" lon="9.995639">
        <ele>217.257245</ele>
        <time>2026-03-19T09:41:40.094Z</time>
      </trkpt>
      <trkpt lat="50.141156" lon="9.995720">
        <ele>218.173810</ele>
        <time>2026-03-19T09:41:49.537Z</time>
      </trkpt>
      <trkpt lat="50.141080" lon="9.995772">
        <ele>218.561882</ele>
        <time>2026-03-19T09:41:53.637Z</time>
      </trkpt>
      <trkpt lat="50.140952" lon="9.995857">
        <ele>219.672701</ele>
        <time>2026-03-19T09:42:00.718Z</time>
      </trkpt>
      <trkpt lat="50.139882" lon="9.996568">
        <ele>229.909136</ele>
        <time>2026-03-19T09:43:10.583Z</time>
      </trkpt>
      <trkpt lat="50.139131" lon="9.997180">
        <ele>238.158511</ele>
        <time>2026-03-19T09:44:16.287Z</time>
      </trkpt>
      <trkpt lat="50.138637" lon="9.997550">
        <ele>244.324381</ele>
        <time>2026-03-19T09:44:59.584Z</time>
      </trkpt>
      <trkpt lat="50.138515" lon="9.997578">
        <ele>245.711918</ele>
        <time>2026-03-19T09:45:09.076Z</time>
      </trkpt>
      <trkpt lat="50.138441" lon="9.997558">
        <ele>246.556978</ele>
        <time>2026-03-19T09:45:14.829Z</time>
      </trkpt>
      <trkpt lat="50.138165" lon="9.997274">
        <ele>250.277168</ele>
        <time>2026-03-19T09:45:40.188Z</time>
      </trkpt>
      <trkpt lat="50.137476" lon="9.996365">
        <ele>259.589690</ele>
        <time>2026-03-19T09:46:45.660Z</time>
      </trkpt>
      <trkpt lat="50.137144" lon="9.995850">
        <ele>264.076718</ele>
        <time>2026-03-19T09:47:17.641Z</time>
      </trkpt>
      <trkpt lat="50.136864" lon="9.995388">
        <ele>267.982644</ele>
        <time>2026-03-19T09:47:43.937Z</time>
      </trkpt>
      <trkpt lat="50.136583" lon="9.994795">
        <ele>272.416544</ele>
        <time>2026-03-19T09:48:13.337Z</time>
      </trkpt>
      <trkpt lat="50.136439" lon="9.994348">
        <ele>274.913339</ele>
        <time>2026-03-19T09:48:33.476Z</time>
      </trkpt>
      <trkpt lat="50.136287" lon="9.993790">
        <ele>277.939258</ele>
        <time>2026-03-19T09:48:56.502Z</time>
      </trkpt>
      <trkpt lat="50.136153" lon="9.993408">
        <ele>280.112579</ele>
        <time>2026-03-19T09:49:12.357Z</time>
      </trkpt>
      <trkpt lat="50.136102" lon="9.993260">
        <ele>280.951199</ele>
        <time>2026-03-19T09:49:18.479Z</time>
      </trkpt>
      <trkpt lat="50.136085" lon="9.992703">
        <ele>283.734233</ele>
        <time>2026-03-19T09:49:38.132Z</time>
      </trkpt>
      <trkpt lat="50.136187" lon="9.992263">
        <ele>286.057552</ele>
        <time>2026-03-19T09:49:55.435Z</time>
      </trkpt>
      <trkpt lat="50.136792" lon="9.990160">
        <ele>295.474966</ele>
        <time>2026-03-19T09:51:14.883Z</time>
      </trkpt>
      <trkpt lat="50.136874" lon="9.988573">
        <ele>299.202045</ele>
        <time>2026-03-19T09:51:56.573Z</time>
      </trkpt>
      <trkpt lat="50.136786" lon="9.986166">
        <ele>300.679543</ele>
        <time>2026-03-19T09:52:35.362Z</time>
      </trkpt>
      <trkpt lat="50.136831" lon="9.985872">
        <ele>300.170186</ele>
        <time>2026-03-19T09:52:38.391Z</time>
      </trkpt>
      <trkpt lat="50.136758" lon="9.984985">
        <ele>298.663208</ele>
        <time>2026-03-19T09:52:46.594Z</time>
      </trkpt>
      <trkpt lat="50.136692" lon="9.984798">
        <ele>298.303474</ele>
        <time>2026-03-19T09:52:48.426Z</time>
      </trkpt>
      <trkpt lat="50.136315" lon="9.984006">
        <ele>295.994513</ele>
        <time>2026-03-19T09:52:56.607Z</time>
      </trkpt>
      <trkpt lat="50.136165" lon="9.983854">
        <ele>294.921389</ele>
        <time>2026-03-19T09:52:59.036Z</time>
      </trkpt>
      <trkpt lat="50.136133" lon="9.983827">
        <ele>294.703120</ele>
        <time>2026-03-19T09:52:59.529Z</time>
      </trkpt>
      <trkpt lat="50.136102" lon="9.983658">
        <ele>294.027122</ele>
        <time>2026-03-19T09:53:02.305Z</time>
      </trkpt>
      <trkpt lat="50.135984" lon="9.983440">
        <ele>292.929837</ele>
        <time>2026-03-19T09:53:06.793Z</time>
      </trkpt>
      <trkpt lat="50.135948" lon="9.983379">
        <ele>292.610964</ele>
        <time>2026-03-19T09:53:08.080Z</time>
      </trkpt>
      <trkpt lat="50.135833" lon="9.983112">
        <ele>291.373897</ele>
        <time>2026-03-19T09:53:13.112Z</time>
      </trkpt>
      <trkpt lat="50.135822" lon="9.983074">
        <ele>291.213551</ele>
        <time>2026-03-19T09:53:13.750Z</time>
      </trkpt>
      <trkpt lat="50.135833" lon="9.983112">
        <ele>291.053206</ele>
        <time>2026-03-19T09:53:14.399Z</time>
      </trkpt>
      <trkpt lat="50.135948" lon="9.983379">
        <ele>289.816139</ele>
        <time>2026-03-19T09:53:19.356Z</time>
      </trkpt>
      <trkpt lat="50.135984" lon="9.983440">
        <ele>289.497265</ele>
        <time>2026-03-19T09:53:20.662Z</time>
      </trkpt>
      <trkpt lat="50.136145" lon="9.983216">
        <ele>288.203007</ele>
        <time>2026-03-19T09:53:25.722Z</time>
      </trkpt>
      <trkpt lat="50.136158" lon="9.983077">
        <ele>287.662808</ele>
        <time>2026-03-19T09:53:27.794Z</time>
      </trkpt>
      <trkpt lat="50.136158" lon="9.982862">
        <ele>286.836003</ele>
        <time>2026-03-19T09:53:30.889Z</time>
      </trkpt>
      <trkpt lat="50.136031" lon="9.982088">
        <ele>280.766809</ele>
        <time>2026-03-19T09:53:41.941Z</time>
      </trkpt>
      <trkpt lat="50.135959" lon="9.981832">
        <ele>278.448065</ele>
        <time>2026-03-19T09:53:45.625Z</time>
      </trkpt>
      <trkpt lat="50.135937" lon="9.981537">
        <ele>275.984754</ele>
        <time>2026-03-19T09:53:49.546Z</time>
      </trkpt>
      <trkpt lat="50.135813" lon="9.981153">
        <ele>272.418396</ele>
        <time>2026-03-19T09:53:55.316Z</time>
      </trkpt>
      <trkpt lat="50.135811" lon="9.981149">
        <ele>272.376319</ele>
        <time>2026-03-19T09:53:55.387Z</time>
      </trkpt>
      <trkpt lat="50.135743" lon="9.981022">
        <ele>271.003774</ele>
        <time>2026-03-19T09:53:57.567Z</time>
      </trkpt>
      <trkpt lat="50.135524" lon="9.980735">
        <ele>267.302742</ele>
        <time>2026-03-19T09:54:03.349Z</time>
      </trkpt>
      <trkpt lat="50.135478" lon="9.980725">
        <ele>266.701742</ele>
        <time>2026-03-19T09:54:04.281Z</time>
      </trkpt>
      <trkpt lat="50.135433" lon="9.980603">
        <ele>265.534247</ele>
        <time>2026-03-19T09:54:06.069Z</time>
      </trkpt>
      <trkpt lat="50.135513" lon="9.980550">
        <ele>264.409561</ele>
        <time>2026-03-19T09:54:07.789Z</time>
      </trkpt>
      <trkpt lat="50.135563" lon="9.980570">
        <ele>263.741623</ele>
        <time>2026-03-19T09:54:14.203Z</time>
      </trkpt>
      <trkpt lat="50.135867" lon="9.980741">
        <ele>259.210466</ele>
        <time>2026-03-19T09:54:20.580Z</time>
      </trkpt>
      <trkpt lat="50.135854" lon="9.980466">
        <ele>256.696239</ele>
        <time>2026-03-19T09:54:24.064Z</time>
      </trkpt>
      <trkpt lat="50.135804" lon="9.980277">
        <ele>254.831948</ele>
        <time>2026-03-19T09:54:26.665Z</time>
      </trkpt>
      <trkpt lat="50.135595" lon="9.979798">
        <ele>249.548586</ele>
        <time>2026-03-19T09:54:34.089Z</time>
      </trkpt>
      <trkpt lat="50.135571" lon="9.979745">
        <ele>248.956905</ele>
        <time>2026-03-19T09:54:34.943Z</time>
      </trkpt>
      <trkpt lat="50.135369" lon="9.979401">
        <ele>244.703085</ele>
        <time>2026-03-19T09:54:41.035Z</time>
      </trkpt>
      <trkpt lat="50.135289" lon="9.979229">
        <ele>242.765403</ele>
        <time>2026-03-19T09:54:43.798Z</time>
      </trkpt>
      <trkpt lat="50.135275" lon="9.979137">
        <ele>241.903232</ele>
        <time>2026-03-19T09:54:45.027Z</time>
      </trkpt>
      <trkpt lat="50.135279" lon="9.979030">
        <ele>240.925949</ele>
        <time>2026-03-19T09:54:46.436Z</time>
      </trkpt>
      <trkpt lat="50.135320" lon="9.978891">
        <ele>239.530793</ele>
        <time>2026-03-19T09:54:48.493Z</time>
      </trkpt>
      <trkpt lat="50.135408" lon="9.978691">
        <ele>237.497399</ele>
        <time>2026-03-19T09:54:51.821Z</time>
      </trkpt>
      <trkpt lat="50.135358" lon="9.978606">
        <ele>237.522254</ele>
        <time>2026-03-19T09:54:52.722Z</time>
      </trkpt>
      <trkpt lat="50.135286" lon="9.978510">
        <ele>237.554089</ele>
        <time>2026-03-19T09:54:54.375Z</time>
      </trkpt>
      <trkpt lat="50.135147" lon="9.978679">
        <ele>237.613321</ele>
        <time>2026-03-19T09:54:58.602Z</time>
      </trkpt>
      <trkpt lat="50.135097" lon="9.978804">
        <ele>237.645065</ele>
        <time>2026-03-19T09:55:01.012Z</time>
      </trkpt>
      <trkpt lat="50.135049" lon="9.978979">
        <ele>237.686074</ele>
        <time>2026-03-19T09:55:04.313Z</time>
      </trkpt>
      <trkpt lat="50.134979" lon="9.979535">
        <ele>237.808150</ele>
        <time>2026-03-19T09:55:16.844Z</time>
      </trkpt>
      <trkpt lat="50.134794" lon="9.980848">
        <ele>238.097782</ele>
        <time>2026-03-19T09:56:08.604Z</time>
      </trkpt>
      <trkpt lat="50.134717" lon="9.981684">
        <ele>240.957021</ele>
        <time>2026-03-19T09:56:43.723Z</time>
      </trkpt>
      <trkpt lat="50.134630" lon="9.982209">
        <ele>242.793244</ele>
        <time>2026-03-19T09:57:05.670Z</time>
      </trkpt>
      <trkpt lat="50.134642" lon="9.982721">
        <ele>244.528155</ele>
        <time>2026-03-19T09:57:25.169Z</time>
      </trkpt>
      <trkpt lat="50.134709" lon="9.983591">
        <ele>247.495364</ele>
        <time>2026-03-19T09:57:55.486Z</time>
      </trkpt>
      <trkpt lat="50.134684" lon="9.983916">
        <ele>247.967808</ele>
        <time>2026-03-19T09:58:05.908Z</time>
      </trkpt>
      <trkpt lat="50.134432" lon="9.985321">
        <ele>249.778690</ele>
        <time>2026-03-19T09:58:45.779Z</time>
      </trkpt>
      <trkpt lat="50.134411" lon="9.985926">
        <ele>250.530723</ele>
        <time>2026-03-19T09:59:00.189Z</time>
      </trkpt>
      <trkpt lat="50.134431" lon="9.986217">
        <ele>250.893986</ele>
        <time>2026-03-19T09:59:06.849Z</time>
      </trkpt>
      <trkpt lat="50.134611" lon="9.987414">
        <ele>250.357906</ele>
        <time>2026-03-19T09:59:31.891Z</time>
      </trkpt>
      <trkpt lat="50.134691" lon="9.988169">
        <ele>249.843135</ele>
        <time>2026-03-19T09:59:45.988Z</time>
      </trkpt>
      <trkpt lat="50.134743" lon="9.989078">
        <ele>249.229234</ele>
        <time>2026-03-19T10:00:02.216Z</time>
      </trkpt>
      <trkpt lat="50.134790" lon="9.989398">
        <ele>248.639169</ele>
        <time>2026-03-19T10:00:07.751Z</time>
      </trkpt>
      <trkpt lat="50.134804" lon="9.989674">
        <ele>248.084620</ele>
        <time>2026-03-19T10:00:12.294Z</time>
      </trkpt>
      <trkpt lat="50.134806" lon="9.989977">
        <ele>247.477687</ele>
        <time>2026-03-19T10:00:17.215Z</time>
      </trkpt>
      <trkpt lat="50.134771" lon="9.990409">
        <ele>246.605518</ele>
        <time>2026-03-19T10:00:24.251Z</time>
      </trkpt>
      <trkpt lat="50.134773" lon="9.990525">
        <ele>246.373089</ele>
        <time>2026-03-19T10:00:26.096Z</time>
      </trkpt>
      <trkpt lat="50.134808" lon="9.990640">
        <ele>246.118101</ele>
        <time>2026-03-19T10:00:28.205Z</time>
      </trkpt>
      <trkpt lat="50.134699" lon="9.991149">
        <ele>245.043195</ele>
        <time>2026-03-19T10:00:36.919Z</time>
      </trkpt>
      <trkpt lat="50.134487" lon="9.991816">
        <ele>243.570453</ele>
        <time>2026-03-19T10:00:49.144Z</time>
      </trkpt>
      <trkpt lat="50.134074" lon="9.992768">
        <ele>243.146214</ele>
        <time>2026-03-19T10:01:09.062Z</time>
      </trkpt>
      <trkpt lat="50.134042" lon="9.992834">
        <ele>243.115673</ele>
        <time>2026-03-19T10:01:10.598Z</time>
      </trkpt>
      <trkpt lat="50.133974" lon="9.992834">
        <ele>243.076522</ele>
        <time>2026-03-19T10:01:12.670Z</time>
      </trkpt>
      <trkpt lat="50.133679" lon="9.992751">
        <ele>242.903936</ele>
        <time>2026-03-19T10:01:22.093Z</time>
      </trkpt>
      <trkpt lat="50.133622" lon="9.992472">
        <ele>242.795867</ele>
        <time>2026-03-19T10:01:26.490Z</time>
      </trkpt>
      <trkpt lat="50.133586" lon="9.992282">
        <ele>242.722747</ele>
        <time>2026-03-19T10:01:29.669Z</time>
      </trkpt>
      <trkpt lat="50.133576" lon="9.991897">
        <ele>242.580544</ele>
        <time>2026-03-19T10:01:36.343Z</time>
      </trkpt>
      <trkpt lat="50.133523" lon="9.990982">
        <ele>243.992523</ele>
        <time>2026-03-19T10:01:55.298Z</time>
      </trkpt>
      <trkpt lat="50.133449" lon="9.990560">
        <ele>244.781174</ele>
        <time>2026-03-19T10:02:04.839Z</time>
      </trkpt>
      <trkpt lat="50.133143" lon="9.989338">
        <ele>247.146084</ele>
        <time>2026-03-19T10:02:35.879Z</time>
      </trkpt>
      <trkpt lat="50.132856" lon="9.988225">
        <ele>248.825001</ele>
        <time>2026-03-19T10:03:13.137Z</time>
      </trkpt>
      <trkpt lat="50.132770" lon="9.987787">
        <ele>249.417409</ele>
        <time>2026-03-19T10:03:26.257Z</time>
      </trkpt>
      <trkpt lat="50.132689" lon="9.987264">
        <ele>250.113227</ele>
        <time>2026-03-19T10:03:40.576Z</time>
      </trkpt>
      <trkpt lat="50.132586" lon="9.986127">
        <ele>251.106072</ele>
        <time>2026-03-19T10:04:06.593Z</time>
      </trkpt>
      <trkpt lat="50.132520" lon="9.985652">
        <ele>250.903851</ele>
        <time>2026-03-19T10:04:16.123Z</time>
      </trkpt>
      <trkpt lat="50.132321" lon="9.984593">
        <ele>250.444692</ele>
        <time>2026-03-19T10:04:36.763Z</time>
      </trkpt>
      <trkpt lat="50.132232" lon="9.983718">
        <ele>250.076077</ele>
        <time>2026-03-19T10:04:53.071Z</time>
      </trkpt>
      <trkpt lat="50.132207" lon="9.983072">
        <ele>250.004348</ele>
        <time>2026-03-19T10:05:05.285Z</time>
      </trkpt>
      <trkpt lat="50.132228" lon="9.982643">
        <ele>249.965880</ele>
        <time>2026-03-19T10:05:13.570Z</time>
      </trkpt>
      <trkpt lat="50.132517" lon="9.979628">
        <ele>250.150935</ele>
        <time>2026-03-19T10:06:18.849Z</time>
      </trkpt>
      <trkpt lat="50.132527" lon="9.978901">
        <ele>250.346384</ele>
        <time>2026-03-19T10:06:35.801Z</time>
      </trkpt>
      <trkpt lat="50.132500" lon="9.976230">
        <ele>249.114609</ele>
        <time>2026-03-19T10:07:31.494Z</time>
      </trkpt>
      <trkpt lat="50.132440" lon="9.975173">
        <ele>247.857390</ele>
        <time>2026-03-19T10:07:49.272Z</time>
      </trkpt>
      <trkpt lat="50.132390" lon="9.974341">
        <ele>244.303407</ele>
        <time>2026-03-19T10:08:01.896Z</time>
      </trkpt>
      <trkpt lat="50.132428" lon="9.973234">
        <ele>239.588629</ele>
        <time>2026-03-19T10:08:17.892Z</time>
      </trkpt>
      <trkpt lat="50.132405" lon="9.972901">
        <ele>238.164194</ele>
        <time>2026-03-19T10:08:22.647Z</time>
      </trkpt>
      <trkpt lat="50.132308" lon="9.972551">
        <ele>236.542488</ele>
        <time>2026-03-19T10:08:28.047Z</time>
      </trkpt>
      <trkpt lat="50.132204" lon="9.972284">
        <ele>235.056747</ele>
        <time>2026-03-19T10:08:32.464Z</time>
      </trkpt>
      <trkpt lat="50.132020" lon="9.972000">
        <ele>233.122561</ele>
        <time>2026-03-19T10:08:38.201Z</time>
      </trkpt>
      <trkpt lat="50.131831" lon="9.971791">
        <ele>231.391419</ele>
        <time>2026-03-19T10:08:43.359Z</time>
      </trkpt>
      <trkpt lat="50.131222" lon="9.971238">
        <ele>226.125847</ele>
        <time>2026-03-19T10:08:59.191Z</time>
      </trkpt>
      <trkpt lat="50.131123" lon="9.971093">
        <ele>225.111106</ele>
        <time>2026-03-19T10:09:02.284Z</time>
      </trkpt>
      <trkpt lat="50.131088" lon="9.970948">
        <ele>224.368927</ele>
        <time>2026-03-19T10:09:04.549Z</time>
      </trkpt>
      <trkpt lat="50.131107" lon="9.970736">
        <ele>223.343542</ele>
        <time>2026-03-19T10:09:07.685Z</time>
      </trkpt>
      <trkpt lat="50.131166" lon="9.970527">
        <ele>222.561542</ele>
        <time>2026-03-19T10:09:11.050Z</time>
      </trkpt>
      <trkpt lat="50.131164" lon="9.970366">
        <ele>222.103891</ele>
        <time>2026-03-19T10:09:13.442Z</time>
      </trkpt>
      <trkpt lat="50.131126" lon="9.970234">
        <ele>221.692651</ele>
        <time>2026-03-19T10:09:15.601Z</time>
      </trkpt>
      <trkpt lat="50.131033" lon="9.970098">
        <ele>221.127498</ele>
        <time>2026-03-19T10:09:18.597Z</time>
      </trkpt>
      <trkpt lat="50.130232" lon="9.969440">
        <ele>217.113967</ele>
        <time>2026-03-19T10:09:40.888Z</time>
      </trkpt>
      <trkpt lat="50.129219" lon="9.968529">
        <ele>213.290745</ele>
        <time>2026-03-19T10:10:12.058Z</time>
      </trkpt>
      <trkpt lat="50.127782" lon="9.967134">
        <ele>209.445892</ele>
        <time>2026-03-19T10:10:57.495Z</time>
      </trkpt>
      <trkpt lat="50.127431" lon="9.966829">
        <ele>208.698382</ele>
        <time>2026-03-19T10:11:08.429Z</time>
      </trkpt>
      <trkpt lat="50.127325" lon="9.966907">
        <ele>208.480330</ele>
        <time>2026-03-19T10:11:10.257Z</time>
      </trkpt>
      <trkpt lat="50.127253" lon="9.966924">
        <ele>208.344851</ele>
        <time>2026-03-19T10:11:11.393Z</time>
      </trkpt>
      <trkpt lat="50.127201" lon="9.966935">
        <ele>208.247221</ele>
        <time>2026-03-19T10:11:12.231Z</time>
      </trkpt>
      <trkpt lat="50.127160" lon="9.966721">
        <ele>207.980825</ele>
        <time>2026-03-19T10:11:14.485Z</time>
      </trkpt>
      <trkpt lat="50.126699" lon="9.966046">
        <ele>207.111171</ele>
        <time>2026-03-19T10:11:24.861Z</time>
      </trkpt>
      <trkpt lat="50.125826" lon="9.964639">
        <ele>206.549635</ele>
        <time>2026-03-19T10:11:47.498Z</time>
      </trkpt>
      <trkpt lat="50.125523" lon="9.964053">
        <ele>206.535667</ele>
        <time>2026-03-19T10:11:57.188Z</time>
      </trkpt>
      <trkpt lat="50.124969" lon="9.962717">
        <ele>207.397021</ele>
        <time>2026-03-19T10:12:20.325Z</time>
      </trkpt>
      <trkpt lat="50.124539" lon="9.961548">
        <ele>208.624788</ele>
        <time>2026-03-19T10:12:41.557Z</time>
      </trkpt>
      <trkpt lat="50.124166" lon="9.960014">
        <ele>211.679750</ele>
        <time>2026-03-19T10:13:16.296Z</time>
      </trkpt>
      <trkpt lat="50.124056" lon="9.960770">
        <ele>213.123285</ele>
        <time>2026-03-19T10:13:35.760Z</time>
      </trkpt>
      <trkpt lat="50.124002" lon="9.960619">
        <ele>213.646638</ele>
        <time>2026-03-19T10:13:41.682Z</time>
      </trkpt>
      <trkpt lat="50.123892" lon="9.960496">
        <ele>214.304666</ele>
        <time>2026-03-19T10:13:49.141Z</time>
      </trkpt>
      <trkpt lat="50.122594" lon="9.959764">
        <ele>221.015101</ele>
        <time>2026-03-19T10:15:07.887Z</time>
      </trkpt>
      <trkpt lat="50.122303" lon="9.959651">
        <ele>222.524872</ele>
        <time>2026-03-19T10:15:25.411Z</time>
      </trkpt>
      <trkpt lat="50.121385" lon="9.959600">
        <ele>227.388306</ele>
        <time>2026-03-19T10:16:18.650Z</time>
      </trkpt>
      <trkpt lat="50.121040" lon="9.959615">
        <ele>229.215618</ele>
        <time>2026-03-19T10:16:38.345Z</time>
      </trkpt>
      <trkpt lat="50.120626" lon="9.959556">
        <ele>231.417533</ele>
        <time>2026-03-19T10:17:02.537Z</time>
      </trkpt>
      <trkpt lat="50.120155" lon="9.959820">
        <ele>234.908653</ele>
        <time>2026-03-19T10:17:32.610Z</time>
      </trkpt>
      <trkpt lat="50.120029" lon="9.960001">
        <ele>236.103548</ele>
        <time>2026-03-19T10:17:43.534Z</time>
      </trkpt>
      <trkpt lat="50.119803" lon="9.960410">
        <ele>238.518350</ele>
        <time>2026-03-19T10:18:06.743Z</time>
      </trkpt>
      <trkpt lat="50.119571" lon="9.961228">
        <ele>242.518789</ele>
        <time>2026-03-19T10:18:47.355Z</time>
      </trkpt>
      <trkpt lat="50.119503" lon="9.961738">
        <ele>245.082949</ele>
        <time>2026-03-19T10:19:12.374Z</time>
      </trkpt>
      <trkpt lat="50.119498" lon="9.963387">
        <ele>254.403942</ele>
        <time>2026-03-19T10:20:31.997Z</time>
      </trkpt>
      <trkpt lat="50.119437" lon="9.964539">
        <ele>260.851598</ele>
        <time>2026-03-19T10:21:29.393Z</time>
      </trkpt>
      <trkpt lat="50.119316" lon="9.965382">
        <ele>265.359525</ele>
        <time>2026-03-19T10:22:14.872Z</time>
      </trkpt>
      <trkpt lat="50.119180" lon="9.966620">
        <ele>271.913964</ele>
        <time>2026-03-19T10:23:16.029Z</time>
      </trkpt>
      <trkpt lat="50.119080" lon="9.967040">
        <ele>274.251899</ele>
        <time>2026-03-19T10:23:33.948Z</time>
      </trkpt>
      <trkpt lat="50.118951" lon="9.967245">
        <ele>275.274382</ele>
        <time>2026-03-19T10:23:44.122Z</time>
      </trkpt>
      <trkpt lat="50.118783" lon="9.967445">
        <ele>276.362324</ele>
        <time>2026-03-19T10:23:54.451Z</time>
      </trkpt>
      <trkpt lat="50.118150" lon="9.968070">
        <ele>280.218840</ele>
        <time>2026-03-19T10:24:25.910Z</time>
      </trkpt>
      <trkpt lat="50.118038" lon="9.968248">
        <ele>281.041979</ele>
        <time>2026-03-19T10:24:33.501Z</time>
      </trkpt>
      <trkpt lat="50.117875" lon="9.968436">
        <ele>282.085558</ele>
        <time>2026-03-19T10:24:45.115Z</time>
      </trkpt>
      <trkpt lat="50.117763" lon="9.968554">
        <ele>282.781314</ele>
        <time>2026-03-19T10:24:54.144Z</time>
      </trkpt>
      <trkpt lat="50.117508" lon="9.968722">
        <ele>284.851298</ele>
        <time>2026-03-19T10:25:16.078Z</time>
      </trkpt>
      <trkpt lat="50.117429" lon="9.968983">
        <ele>287.049977</ele>
        <time>2026-03-19T10:25:32.852Z</time>
      </trkpt>
      <trkpt lat="50.117636" lon="9.969270">
        <ele>290.340587</ele>
        <time>2026-03-19T10:25:59.769Z</time>
      </trkpt>
      <trkpt lat="50.117886" lon="9.969554">
        <ele>294.015139</ele>
        <time>2026-03-19T10:26:32.226Z</time>
      </trkpt>
      <trkpt lat="50.118027" lon="9.969909">
        <ele>297.196277</ele>
        <time>2026-03-19T10:27:01.579Z</time>
      </trkpt>
      <trkpt lat="50.118103" lon="9.970008">
        <ele>298.372726</ele>
        <time>2026-03-19T10:27:12.145Z</time>
      </trkpt>
      <trkpt lat="50.118171" lon="9.970008">
        <ele>299.180600</ele>
        <time>2026-03-19T10:27:19.163Z</time>
      </trkpt>
      <trkpt lat="50.118200" lon="9.969995">
        <ele>299.539085</ele>
        <time>2026-03-19T10:27:22.216Z</time>
      </trkpt>
      <trkpt lat="50.118392" lon="9.969908">
        <ele>301.914471</ele>
        <time>2026-03-19T10:27:42.675Z</time>
      </trkpt>
      <trkpt lat="50.118848" lon="9.970647">
        <ele>306.696318</ele>
        <time>2026-03-19T10:28:35.977Z</time>
      </trkpt>
      <trkpt lat="50.118936" lon="9.970353">
        <ele>307.555273</ele>
        <time>2026-03-19T10:28:47.592Z</time>
      </trkpt>
      <trkpt lat="50.118848" lon="9.970647">
        <ele>308.414228</ele>
        <time>2026-03-19T10:28:57.898Z</time>
      </trkpt>
      <trkpt lat="50.118611" lon="9.971970">
        <ele>312.050832</ele>
        <time>2026-03-19T10:29:31.582Z</time>
      </trkpt>
      <trkpt lat="50.118482" lon="9.972533">
        <ele>312.559099</ele>
        <time>2026-03-19T10:29:44.206Z</time>
      </trkpt>
      <trkpt lat="50.118611" lon="9.971970">
        <ele>312.630784</ele>
        <time>2026-03-19T10:29:56.332Z</time>
      </trkpt>
      <trkpt lat="50.118848" lon="9.970647">
        <ele>312.795487</ele>
        <time>2026-03-19T10:30:24.088Z</time>
      </trkpt>
      <trkpt lat="50.118611" lon="9.971970">
        <ele>313.000239</ele>
        <time>2026-03-19T10:30:53.920Z</time>
      </trkpt>
      <trkpt lat="50.118482" lon="9.972533">
        <ele>313.096731</ele>
        <time>2026-03-19T10:31:06.989Z</time>
      </trkpt>
      <trkpt lat="50.118393" lon="9.972796">
        <ele>313.144726</ele>
        <time>2026-03-19T10:31:11.182Z</time>
      </trkpt>
      <trkpt lat="50.117841" lon="9.974000">
        <ele>313.696257</ele>
        <time>2026-03-19T10:31:30.350Z</time>
      </trkpt>
      <trkpt lat="50.117648" lon="9.974501">
        <ele>314.131857</ele>
        <time>2026-03-19T10:31:37.942Z</time>
      </trkpt>
      <trkpt lat="50.117477" lon="9.975181">
        <ele>314.676243</ele>
        <time>2026-03-19T10:31:49.727Z</time>
      </trkpt>
      <trkpt lat="50.117491" lon="9.975544">
        <ele>314.947277</ele>
        <time>2026-03-19T10:31:56.640Z</time>
      </trkpt>
      <trkpt lat="50.117551" lon="9.975983">
        <ele>315.281815</ele>
        <time>2026-03-19T10:32:05.907Z</time>
      </trkpt>
      <trkpt lat="50.117593" lon="9.976748">
        <ele>316.415762</ele>
        <time>2026-03-19T10:32:23.477Z</time>
      </trkpt>
      <trkpt lat="50.117555" lon="9.977150">
        <ele>317.083462</ele>
        <time>2026-03-19T10:32:33.386Z</time>
      </trkpt>
      <trkpt lat="50.117603" lon="9.977672">
        <ele>317.949980</ele>
        <time>2026-03-19T10:32:45.863Z</time>
      </trkpt>
      <trkpt lat="50.117671" lon="9.978117">
        <ele>318.701674</ele>
        <time>2026-03-19T10:32:55.957Z</time>
      </trkpt>
      <trkpt lat="50.117798" lon="9.978521">
        <ele>319.441004</ele>
        <time>2026-03-19T10:33:05.008Z</time>
      </trkpt>
      <trkpt lat="50.117896" lon="9.978938">
        <ele>320.019700</ele>
        <time>2026-03-19T10:33:13.090Z</time>
      </trkpt>
      <trkpt lat="50.117966" lon="9.979228">
        <ele>320.086118</ele>
        <time>2026-03-19T10:33:18.337Z</time>
      </trkpt>
      <trkpt lat="50.118257" lon="9.981135">
        <ele>320.506283</ele>
        <time>2026-03-19T10:33:45.928Z</time>
      </trkpt>
      <trkpt lat="50.118258" lon="9.981366">
        <ele>320.555797</ele>
        <time>2026-03-19T10:33:48.759Z</time>
      </trkpt>
      <trkpt lat="50.118161" lon="9.982188">
        <ele>319.250168</ele>
        <time>2026-03-19T10:33:58.281Z</time>
      </trkpt>
      <trkpt lat="50.118102" lon="9.982667">
        <ele>318.218846</ele>
        <time>2026-03-19T10:34:03.379Z</time>
      </trkpt>
      <trkpt lat="50.118310" lon="9.983565">
        <ele>316.200017</ele>
        <time>2026-03-19T10:34:12.503Z</time>
      </trkpt>
      <trkpt lat="50.118334" lon="9.983666">
        <ele>315.972269</ele>
        <time>2026-03-19T10:34:13.495Z</time>
      </trkpt>
      <trkpt lat="50.118488" lon="9.983614">
        <ele>315.452679</ele>
        <time>2026-03-19T10:34:15.599Z</time>
      </trkpt>
      <trkpt lat="50.119182" lon="9.983444">
        <ele>311.445759</ele>
        <time>2026-03-19T10:34:24.656Z</time>
      </trkpt>
      <trkpt lat="50.119325" lon="9.983376">
        <ele>310.408493</ele>
        <time>2026-03-19T10:34:26.549Z</time>
      </trkpt>
      <trkpt lat="50.119492" lon="9.983098">
        <ele>308.713762</ele>
        <time>2026-03-19T10:34:29.608Z</time>
      </trkpt>
      <trkpt lat="50.119536" lon="9.982927">
        <ele>307.894059</ele>
        <time>2026-03-19T10:34:31.082Z</time>
      </trkpt>
      <trkpt lat="50.119564" lon="9.982574">
        <ele>306.311686</ele>
        <time>2026-03-19T10:34:33.922Z</time>
      </trkpt>
      <trkpt lat="50.119476" lon="9.981858">
        <ele>303.068404</ele>
        <time>2026-03-19T10:34:39.754Z</time>
      </trkpt>
      <trkpt lat="50.119453" lon="9.981750">
        <ele>302.562133</ele>
        <time>2026-03-19T10:34:40.658Z</time>
      </trkpt>
      <trkpt lat="50.119082" lon="9.979984">
        <ele>294.675565</ele>
        <time>2026-03-19T10:34:55.600Z</time>
      </trkpt>
      <trkpt lat="50.118991" lon="9.978628">
        <ele>289.429081</ele>
        <time>2026-03-19T10:35:06.928Z</time>
      </trkpt>
      <trkpt lat="50.118916" lon="9.976752">
        <ele>284.446150</ele>
        <time>2026-03-19T10:35:24.044Z</time>
      </trkpt>
      <trkpt lat="50.118775" lon="9.975984">
        <ele>282.563565</ele>
        <time>2026-03-19T10:35:30.961Z</time>
      </trkpt>
      <trkpt lat="50.118771" lon="9.975710">
        <ele>282.150185</ele>
        <time>2026-03-19T10:35:33.416Z</time>
      </trkpt>
      <trkpt lat="50.118955" lon="9.975387">
        <ele>281.498510</ele>
        <time>2026-03-19T10:35:37.351Z</time>
      </trkpt>
      <trkpt lat="50.119149" lon="9.975219">
        <ele>280.976533</ele>
        <time>2026-03-19T10:35:40.712Z</time>
      </trkpt>
      <trkpt lat="50.119443" lon="9.974895">
        <ele>280.129720</ele>
        <time>2026-03-19T10:35:46.204Z</time>
      </trkpt>
      <trkpt lat="50.119547" lon="9.974660">
        <ele>279.699047</ele>
        <time>2026-03-19T10:35:48.946Z</time>
      </trkpt>
      <trkpt lat="50.119635" lon="9.974337">
        <ele>279.169722</ele>
        <time>2026-03-19T10:35:52.316Z</time>
      </trkpt>
      <trkpt lat="50.119792" lon="9.973298">
        <ele>278.099564</ele>
        <time>2026-03-19T10:36:07.389Z</time>
      </trkpt>
      <trkpt lat="50.119880" lon="9.972522">
        <ele>277.503286</ele>
        <time>2026-03-19T10:36:16.226Z</time>
      </trkpt>
      <trkpt lat="50.119985" lon="9.971627">
        <ele>276.814838</ele>
        <time>2026-03-19T10:36:25.321Z</time>
      </trkpt>
      <trkpt lat="50.120106" lon="9.970938">
        <ele>275.923664</ele>
        <time>2026-03-19T10:36:32.394Z</time>
      </trkpt>
      <trkpt lat="50.120171" lon="9.970573">
        <ele>275.228785</ele>
        <time>2026-03-19T10:36:36.059Z</time>
      </trkpt>
      <trkpt lat="50.120484" lon="9.969453">
        <ele>272.987662</ele>
        <time>2026-03-19T10:36:47.600Z</time>
      </trkpt>
      <trkpt lat="50.120606" lon="9.969189">
        <ele>272.390728</ele>
        <time>2026-03-19T10:36:50.904Z</time>
      </trkpt>
      <trkpt lat="50.120987" lon="9.968369">
        <ele>268.222136</ele>
        <time>2026-03-19T10:37:00.682Z</time>
      </trkpt>
      <trkpt lat="50.121602" lon="9.967122">
        <ele>257.412096</ele>
        <time>2026-03-19T10:37:12.641Z</time>
      </trkpt>
      <trkpt lat="50.121922" lon="9.968205">
        <ele>248.434635</ele>
        <time>2026-03-19T10:37:27.897Z</time>
      </trkpt>
      <trkpt lat="50.121974" lon="9.968438">
        <ele>246.278197</ele>
        <time>2026-03-19T10:37:29.662Z</time>
      </trkpt>
      <trkpt lat="50.122138" lon="9.968737">
        <ele>242.838882</ele>
        <time>2026-03-19T10:37:32.464Z</time>
      </trkpt>
      <trkpt lat="50.122264" lon="9.968900">
        <ele>240.607193</ele>
        <time>2026-03-19T10:37:34.287Z</time>
      </trkpt>
      <trkpt lat="50.122245" lon="9.969019">
        <ele>239.535288</ele>
        <time>2026-03-19T10:37:35.169Z</time>
      </trkpt>
      <trkpt lat="50.122336" lon="9.969060">
        <ele>238.243985</ele>
        <time>2026-03-19T10:37:36.245Z</time>
      </trkpt>
      <trkpt lat="50.122483" lon="9.969232">
        <ele>235.738740</ele>
        <time>2026-03-19T10:37:38.353Z</time>
      </trkpt>
      <trkpt lat="50.122790" lon="9.969743">
        <ele>229.617838</ele>
        <time>2026-03-19T10:37:43.708Z</time>
      </trkpt>
      <trkpt lat="50.123071" lon="9.970074">
        <ele>227.376953</ele>
        <time>2026-03-19T10:37:48.247Z</time>
      </trkpt>
      <trkpt lat="50.122916" lon="9.970365">
        <ele>227.135446</ele>
        <time>2026-03-19T10:37:51.936Z</time>
      </trkpt>
      <trkpt lat="50.123191" lon="9.970759">
        <ele>226.763651</ele>
        <time>2026-03-19T10:37:58.018Z</time>
      </trkpt>
      <trkpt lat="50.123189" lon="9.970888">
        <ele>226.681278</ele>
        <time>2026-03-19T10:37:59.649Z</time>
      </trkpt>
      <trkpt lat="50.123135" lon="9.971155">
        <ele>226.502556</ele>
        <time>2026-03-19T10:38:03.625Z</time>
      </trkpt>
      <trkpt lat="50.123010" lon="9.971528">
        <ele>226.233881</ele>
        <time>2026-03-19T10:38:11.107Z</time>
      </trkpt>
      <trkpt lat="50.122913" lon="9.972000">
        <ele>225.917472</ele>
        <time>2026-03-19T10:38:20.798Z</time>
      </trkpt>
      <trkpt lat="50.122591" lon="9.973828">
        <ele>230.412148</ele>
        <time>2026-03-19T10:39:04.878Z</time>
      </trkpt>
      <trkpt lat="50.122327" lon="9.974828">
        <ele>233.366891</ele>
        <time>2026-03-19T10:39:36.569Z</time>
      </trkpt>
      <trkpt lat="50.122235" lon="9.975630">
        <ele>237.434949</ele>
        <time>2026-03-19T10:40:04.282Z</time>
      </trkpt>
      <trkpt lat="50.122093" lon="9.976246">
        <ele>240.762666</ele>
        <time>2026-03-19T10:40:33.724Z</time>
      </trkpt>
      <trkpt lat="50.121808" lon="9.977268">
        <ele>246.428222</ele>
        <time>2026-03-19T10:41:27.726Z</time>
      </trkpt>
      <trkpt lat="50.121757" lon="9.977660">
        <ele>248.657816</ele>
        <time>2026-03-19T10:41:48.159Z</time>
      </trkpt>
      <trkpt lat="50.121752" lon="9.978212">
        <ele>252.200341</ele>
        <time>2026-03-19T10:42:17.537Z</time>
      </trkpt>
      <trkpt lat="50.121851" lon="9.978611">
        <ele>254.945746</ele>
        <time>2026-03-19T10:42:41.389Z</time>
      </trkpt>
      <trkpt lat="50.121971" lon="9.978848">
        <ele>256.883609</ele>
        <time>2026-03-19T10:42:58.186Z</time>
      </trkpt>
      <trkpt lat="50.122118" lon="9.979022">
        <ele>258.730556</ele>
        <time>2026-03-19T10:43:13.727Z</time>
      </trkpt>
      <trkpt lat="50.122281" lon="9.979144">
        <ele>260.540045</ele>
        <time>2026-03-19T10:43:28.353Z</time>
      </trkpt>
      <trkpt lat="50.122647" lon="9.979198">
        <ele>264.219476</ele>
        <time>2026-03-19T10:43:56.873Z</time>
      </trkpt>
      <trkpt lat="50.122711" lon="9.979124">
        <ele>265.016828</ele>
        <time>2026-03-19T10:44:02.809Z</time>
      </trkpt>
      <trkpt lat="50.122712" lon="9.979009">
        <ele>265.766339</ele>
        <time>2026-03-19T10:44:08.548Z</time>
      </trkpt>
      <trkpt lat="50.122614" lon="9.978845">
        <ele>267.621361</ele>
        <time>2026-03-19T10:44:19.997Z</time>
      </trkpt>
      <trkpt lat="50.122549" lon="9.978640">
        <ele>269.513723</ele>
        <time>2026-03-19T10:44:32.292Z</time>
      </trkpt>
      <trkpt lat="50.122497" lon="9.978273">
        <ele>272.623730</ele>
        <time>2026-03-19T10:44:53.551Z</time>
      </trkpt>
      <trkpt lat="50.122486" lon="9.977866">
        <ele>275.994440</ele>
        <time>2026-03-19T10:45:17.534Z</time>
      </trkpt>
      <trkpt lat="50.122581" lon="9.977556">
        <ele>278.837480</ele>
        <time>2026-03-19T10:45:38.405Z</time>
      </trkpt>
      <trkpt lat="50.122909" lon="9.977239">
        <ele>283.817352</ele>
        <time>2026-03-19T10:46:17.060Z</time>
      </trkpt>
      <trkpt lat="50.122988" lon="9.977270">
        <ele>284.868677</ele>
        <time>2026-03-19T10:46:25.737Z</time>
      </trkpt>
      <trkpt lat="50.123042" lon="9.977493">
        <ele>286.841091</ele>
        <time>2026-03-19T10:46:42.802Z</time>
      </trkpt>
      <trkpt lat="50.123172" lon="9.977601">
        <ele>288.741989</ele>
        <time>2026-03-19T10:46:59.813Z</time>
      </trkpt>
      <trkpt lat="50.123317" lon="9.977577">
        <ele>290.845871</ele>
        <time>2026-03-19T10:47:17.201Z</time>
      </trkpt>
      <trkpt lat="50.123812" lon="9.977130">
        <ele>299.194127</ele>
        <time>2026-03-19T10:48:27.015Z</time>
      </trkpt>
      <trkpt lat="50.123929" lon="9.977073">
        <ele>300.983156</ele>
        <time>2026-03-19T10:48:41.030Z</time>
      </trkpt>
      <trkpt lat="50.124454" lon="9.976820">
        <ele>309.003161</ele>
        <time>2026-03-19T10:49:39.657Z</time>
      </trkpt>
      <trkpt lat="50.124668" lon="9.976765">
        <ele>312.168705</ele>
        <time>2026-03-19T10:50:01.024Z</time>
      </trkpt>
      <trkpt lat="50.125035" lon="9.976768">
        <ele>315.947137</ele>
        <time>2026-03-19T10:50:33.252Z</time>
      </trkpt>
      <trkpt lat="50.125397" lon="9.976901">
        <ele>317.722780</ele>
        <time>2026-03-19T10:51:00.269Z</time>
      </trkpt>
      <trkpt lat="50.125751" lon="9.977117">
        <ele>319.537645</ele>
        <time>2026-03-19T10:51:22.559Z</time>
      </trkpt>
      <trkpt lat="50.125963" lon="9.977419">
        <ele>320.908414</ele>
        <time>2026-03-19T10:51:35.980Z</time>
      </trkpt>
      <trkpt lat="50.126280" lon="9.978054">
        <ele>323.371845</ele>
        <time>2026-03-19T10:51:54.713Z</time>
      </trkpt>
      <trkpt lat="50.126584" lon="9.978753">
        <ele>323.784027</ele>
        <time>2026-03-19T10:52:10.306Z</time>
      </trkpt>
      <trkpt lat="50.126854" lon="9.979470">
        <ele>323.803335</ele>
        <time>2026-03-19T10:52:26.280Z</time>
      </trkpt>
      <trkpt lat="50.126936" lon="9.979847">
        <ele>323.812579</ele>
        <time>2026-03-19T10:52:34.418Z</time>
      </trkpt>
      <trkpt lat="50.127077" lon="9.980226">
        <ele>323.822753</ele>
        <time>2026-03-19T10:52:44.243Z</time>
      </trkpt>
      <trkpt lat="50.127199" lon="9.980470">
        <ele>323.829938</ele>
        <time>2026-03-19T10:52:51.524Z</time>
      </trkpt>
      <trkpt lat="50.127255" lon="9.980914">
        <ele>324.039314</ele>
        <time>2026-03-19T10:53:02.297Z</time>
      </trkpt>
      <trkpt lat="50.127392" lon="9.981651">
        <ele>324.506465</ele>
        <time>2026-03-19T10:53:21.323Z</time>
      </trkpt>
      <trkpt lat="50.127555" lon="9.982378">
        <ele>324.975332</ele>
        <time>2026-03-19T10:53:39.566Z</time>
      </trkpt>
      <trkpt lat="50.127580" lon="9.982679">
        <ele>325.160105</ele>
        <time>2026-03-19T10:53:46.424Z</time>
      </trkpt>
      <trkpt lat="50.127764" lon="9.983604">
        <ele>325.839417</ele>
        <time>2026-03-19T10:54:08.074Z</time>
      </trkpt>
      <trkpt lat="50.127879" lon="9.983963">
        <ele>326.188530</ele>
        <time>2026-03-19T10:54:17.117Z</time>
      </trkpt>
      <trkpt lat="50.127872" lon="9.984194">
        <ele>326.389702</ele>
        <time>2026-03-19T10:54:22.397Z</time>
      </trkpt>
      <trkpt lat="50.128076" lon="9.985181">
        <ele>327.291816</ele>
        <time>2026-03-19T10:54:47.057Z</time>
      </trkpt>
      <trkpt lat="50.128159" lon="9.985476">
        <ele>327.572063</ele>
        <time>2026-03-19T10:54:56.055Z</time>
      </trkpt>
      <trkpt lat="50.128338" lon="9.986705">
        <ele>329.021802</ele>
        <time>2026-03-19T10:55:31.910Z</time>
      </trkpt>
      <trkpt lat="50.128526" lon="9.987037">
        <ele>329.605305</ele>
        <time>2026-03-19T10:55:44.497Z</time>
      </trkpt>
      <trkpt lat="50.128570" lon="9.987679">
        <ele>330.455792</ele>
        <time>2026-03-19T10:56:02.553Z</time>
      </trkpt>
      <trkpt lat="50.128659" lon="9.988324">
        <ele>331.324868</ele>
        <time>2026-03-19T10:56:20.488Z</time>
      </trkpt>
      <trkpt lat="50.128681" lon="9.989574">
        <ele>332.390617</ele>
        <time>2026-03-19T10:56:48.438Z</time>
      </trkpt>
      <trkpt lat="50.128742" lon="9.990103">
        <ele>332.780754</ele>
        <time>2026-03-19T10:57:00.748Z</time>
      </trkpt>
      <trkpt lat="50.128737" lon="9.990346">
        <ele>332.957227</ele>
        <time>2026-03-19T10:57:06.637Z</time>
      </trkpt>
      <trkpt lat="50.128669" lon="9.990769">
        <ele>333.273768</ele>
        <time>2026-03-19T10:57:17.545Z</time>
      </trkpt>
      <trkpt lat="50.128676" lon="9.991038">
        <ele>333.469183</ele>
        <time>2026-03-19T10:57:24.373Z</time>
      </trkpt>
      <trkpt lat="50.128710" lon="9.991226">
        <ele>333.610969</ele>
        <time>2026-03-19T10:57:29.432Z</time>
      </trkpt>
      <trkpt lat="50.128621" lon="9.992258">
        <ele>334.064371</ele>
        <time>2026-03-19T10:57:55.437Z</time>
      </trkpt>
      <trkpt lat="50.128408" lon="9.992883">
        <ele>334.340301</ele>
        <time>2026-03-19T10:58:12.371Z</time>
      </trkpt>
      <trkpt lat="50.128144" lon="9.993439">
        <ele>334.610022</ele>
        <time>2026-03-19T10:58:26.459Z</time>
      </trkpt>
      <trkpt lat="50.127992" lon="9.993675">
        <ele>334.740434</ele>
        <time>2026-03-19T10:58:32.952Z</time>
      </trkpt>
      <trkpt lat="50.127740" lon="9.994750">
        <ele>334.808247</ele>
        <time>2026-03-19T10:58:54.814Z</time>
      </trkpt>
      <trkpt lat="50.127664" lon="9.994954">
        <ele>334.808486</ele>
        <time>2026-03-19T10:58:59.378Z</time>
      </trkpt>
      <trkpt lat="50.127546" lon="9.995082">
        <ele>334.808713</ele>
        <time>2026-03-19T10:59:03.790Z</time>
      </trkpt>
      <trkpt lat="50.127315" lon="9.995243">
        <ele>334.809112</ele>
        <time>2026-03-19T10:59:11.738Z</time>
      </trkpt>
      <trkpt lat="50.126983" lon="9.995686">
        <ele>334.809802</ele>
        <time>2026-03-19T10:59:26.609Z</time>
      </trkpt>
      <trkpt lat="50.126679" lon="9.996155">
        <ele>335.140651</ele>
        <time>2026-03-19T10:59:42.792Z</time>
      </trkpt>
      <trkpt lat="50.126396" lon="9.996688">
        <ele>335.757602</ele>
        <time>2026-03-19T10:59:59.882Z</time>
      </trkpt>
      <trkpt lat="50.126059" lon="9.997138">
        <ele>336.374472</ele>
        <time>2026-03-19T11:00:17.322Z</time>
      </trkpt>
      <trkpt lat="50.125774" lon="9.997625">
        <ele>336.962301</ele>
        <time>2026-03-19T11:00:34.330Z</time>
      </trkpt>
      <trkpt lat="50.125714" lon="9.997862">
        <ele>337.189459</ele>
        <time>2026-03-19T11:00:40.990Z</time>
      </trkpt>
      <trkpt lat="50.125786" lon="9.998303">
        <ele>337.519359</ele>
        <time>2026-03-19T11:00:52.953Z</time>
      </trkpt>
      <trkpt lat="50.125969" lon="10.000652">
        <ele>339.065815</ele>
        <time>2026-03-19T11:01:49.313Z</time>
      </trkpt>
      <trkpt lat="50.126197" lon="10.002062">
        <ele>338.967253</ele>
        <time>2026-03-19T11:02:18.243Z</time>
      </trkpt>
      <trkpt lat="50.126421" lon="10.003169">
        <ele>338.812759</ele>
        <time>2026-03-19T11:02:40.506Z</time>
      </trkpt>
      <trkpt lat="50.127024" lon="10.004586">
        <ele>338.855229</ele>
        <time>2026-03-19T11:03:16.072Z</time>
      </trkpt>
      <trkpt lat="50.127267" lon="10.005182">
        <ele>338.897880</ele>
        <time>2026-03-19T11:03:26.456Z</time>
      </trkpt>
      <trkpt lat="50.127356" lon="10.005474">
        <ele>338.917403</ele>
        <time>2026-03-19T11:03:31.343Z</time>
      </trkpt>
      <trkpt lat="50.127435" lon="10.005853">
        <ele>338.920311</ele>
        <time>2026-03-19T11:03:36.812Z</time>
      </trkpt>
      <trkpt lat="50.127526" lon="10.006108">
        <ele>338.424044</ele>
        <time>2026-03-19T11:03:42.593Z</time>
      </trkpt>
      <trkpt lat="50.127624" lon="10.006813">
        <ele>337.197379</ele>
        <time>2026-03-19T11:03:55.749Z</time>
      </trkpt>
      <trkpt lat="50.127680" lon="10.006950">
        <ele>336.921093</ele>
        <time>2026-03-19T11:03:58.557Z</time>
      </trkpt>
      <trkpt lat="50.127754" lon="10.007134">
        <ele>336.551743</ele>
        <time>2026-03-19T11:04:02.223Z</time>
      </trkpt>
      <trkpt lat="50.127844" lon="10.007614">
        <ele>335.701343</ele>
        <time>2026-03-19T11:04:10.462Z</time>
      </trkpt>
      <trkpt lat="50.127994" lon="10.008054">
        <ele>334.853946</ele>
        <time>2026-03-19T11:04:18.387Z</time>
      </trkpt>
      <trkpt lat="50.128143" lon="10.008653">
        <ele>333.403889</ele>
        <time>2026-03-19T11:04:28.303Z</time>
      </trkpt>
      <trkpt lat="50.128722" lon="10.010000">
        <ele>328.232817</ele>
        <time>2026-03-19T11:04:53.392Z</time>
      </trkpt>
      <trkpt lat="50.128956" lon="10.010303">
        <ele>326.720216</ele>
        <time>2026-03-19T11:05:00.831Z</time>
      </trkpt>
      <trkpt lat="50.129186" lon="10.010547">
        <ele>325.336765</ele>
        <time>2026-03-19T11:05:07.563Z</time>
      </trkpt>
      <trkpt lat="50.129387" lon="10.010555">
        <ele>323.816654</ele>
        <time>2026-03-19T11:05:12.330Z</time>
      </trkpt>
      <trkpt lat="50.130123" lon="10.010305">
        <ele>317.873976</ele>
        <time>2026-03-19T11:05:29.656Z</time>
      </trkpt>
      <trkpt lat="50.130673" lon="10.010222">
        <ele>313.514539</ele>
        <time>2026-03-19T11:05:41.781Z</time>
      </trkpt>
      <trkpt lat="50.131174" lon="10.009973">
        <ele>309.153404</ele>
        <time>2026-03-19T11:05:52.951Z</time>
      </trkpt>
      <trkpt lat="50.131743" lon="10.009457">
        <ele>303.298327</ele>
        <time>2026-03-19T11:06:06.689Z</time>
      </trkpt>
      <trkpt lat="50.132444" lon="10.009066">
        <ele>296.675480</ele>
        <time>2026-03-19T11:06:23.116Z</time>
      </trkpt>
      <trkpt lat="50.132013" lon="10.010000">
        <ele>296.112748</ele>
        <time>2026-03-19T11:06:41.614Z</time>
      </trkpt>
      <trkpt lat="50.131933" lon="10.010284">
        <ele>296.501140</ele>
        <time>2026-03-19T11:06:48.759Z</time>
      </trkpt>
      <trkpt lat="50.131733" lon="10.011281">
        <ele>297.809107</ele>
        <time>2026-03-19T11:07:26.761Z</time>
      </trkpt>
      <trkpt lat="50.131713" lon="10.011567">
        <ele>298.169312</ele>
        <time>2026-03-19T11:07:38.543Z</time>
      </trkpt>
      <trkpt lat="50.131770" lon="10.011879">
        <ele>298.682048</ele>
        <time>2026-03-19T11:07:52.198Z</time>
      </trkpt>
      <trkpt lat="50.131869" lon="10.012251">
        <ele>300.985398</ele>
        <time>2026-03-19T11:08:10.146Z</time>
      </trkpt>
      <trkpt lat="50.131944" lon="10.012429">
        <ele>302.203504</ele>
        <time>2026-03-19T11:08:20.061Z</time>
      </trkpt>
      <trkpt lat="50.132865" lon="10.014178">
        <ele>315.244427</ele>
        <time>2026-03-19T11:10:15.361Z</time>
      </trkpt>
      <trkpt lat="50.133142" lon="10.014443">
        <ele>318.650233</ele>
        <time>2026-03-19T11:10:42.650Z</time>
      </trkpt>
      <trkpt lat="50.133333" lon="10.014842">
        <ele>321.996007</ele>
        <time>2026-03-19T11:11:09.981Z</time>
      </trkpt>
      <trkpt lat="50.133883" lon="10.015485">
        <ele>329.199880</ele>
        <time>2026-03-19T11:12:09.922Z</time>
      </trkpt>
      <trkpt lat="50.134250" lon="10.015864">
        <ele>333.754639</ele>
        <time>2026-03-19T11:12:47.470Z</time>
      </trkpt>
      <trkpt lat="50.134552" lon="10.016269">
        <ele>337.269276</ele>
        <time>2026-03-19T11:13:20.303Z</time>
      </trkpt>
      <trkpt lat="50.134978" lon="10.017246">
        <ele>343.953622</ele>
        <time>2026-03-19T11:14:20.324Z</time>
      </trkpt>
      <trkpt lat="50.135100" lon="10.017695">
        <ele>346.712356</ele>
        <time>2026-03-19T11:14:43.158Z</time>
      </trkpt>
      <trkpt lat="50.135215" lon="10.017862">
        <ele>348.098906</ele>
        <time>2026-03-19T11:14:53.977Z</time>
      </trkpt>
      <trkpt lat="50.135303" lon="10.018078">
        <ele>349.406244</ele>
        <time>2026-03-19T11:15:04.715Z</time>
      </trkpt>
      <trkpt lat="50.135415" lon="10.018707">
        <ele>350.837026</ele>
        <time>2026-03-19T11:15:30.127Z</time>
      </trkpt>
      <trkpt lat="50.135371" lon="10.018761">
        <ele>351.028448</ele>
        <time>2026-03-19T11:15:33.198Z</time>
      </trkpt>
      <trkpt lat="50.135268" lon="10.018889">
        <ele>351.478712</ele>
        <time>2026-03-19T11:15:40.371Z</time>
      </trkpt>
      <trkpt lat="50.135146" lon="10.019136">
        <ele>352.162145</ele>
        <time>2026-03-19T11:15:50.691Z</time>
      </trkpt>
      <trkpt lat="50.134611" lon="10.020777">
        <ele>355.486647</ele>
        <time>2026-03-19T11:16:37.847Z</time>
      </trkpt>
      <trkpt lat="50.134352" lon="10.021284">
        <ele>355.523898</ele>
        <time>2026-03-19T11:16:52.212Z</time>
      </trkpt>
      <trkpt lat="50.133761" lon="10.022301">
        <ele>355.602773</ele>
        <time>2026-03-19T11:17:19.900Z</time>
      </trkpt>
      <trkpt lat="50.133459" lon="10.023206">
        <ele>354.951118</ele>
        <time>2026-03-19T11:17:38.904Z</time>
      </trkpt>
      <trkpt lat="50.133233" lon="10.024242">
        <ele>353.646134</ele>
        <time>2026-03-19T11:17:58.312Z</time>
      </trkpt>
      <trkpt lat="50.133022" lon="10.024592">
        <ele>353.073183</ele>
        <time>2026-03-19T11:18:06.666Z</time>
      </trkpt>
      <trkpt lat="50.132743" lon="10.024883">
        <ele>352.448835</ele>
        <time>2026-03-19T11:18:15.683Z</time>
      </trkpt>
      <trkpt lat="50.132171" lon="10.025184">
        <ele>350.922431</ele>
        <time>2026-03-19T11:18:31.650Z</time>
      </trkpt>
      <trkpt lat="50.132160" lon="10.025189">
        <ele>350.892131</ele>
        <time>2026-03-19T11:18:31.948Z</time>
      </trkpt>
      <trkpt lat="50.131747" lon="10.025444">
        <ele>349.717480</ele>
        <time>2026-03-19T11:18:43.374Z</time>
      </trkpt>
      <trkpt lat="50.131632" lon="10.025631">
        <ele>349.278174</ele>
        <time>2026-03-19T11:18:47.485Z</time>
      </trkpt>
      <trkpt lat="50.131546" lon="10.025748">
        <ele>348.976401</ele>
        <time>2026-03-19T11:18:50.357Z</time>
      </trkpt>
      <trkpt lat="50.131347" lon="10.026485">
        <ele>347.620682</ele>
        <time>2026-03-19T11:19:04.058Z</time>
      </trkpt>
      <trkpt lat="50.131130" lon="10.027143">
        <ele>347.808946</ele>
        <time>2026-03-19T11:19:14.870Z</time>
      </trkpt>
      <trkpt lat="50.131046" lon="10.027047">
        <ele>347.876125</ele>
        <time>2026-03-19T11:19:16.853Z</time>
      </trkpt>
      <trkpt lat="50.130883" lon="10.026588">
        <ele>348.093131</ele>
        <time>2026-03-19T11:19:23.467Z</time>
      </trkpt>
      <trkpt lat="50.130862" lon="10.026525">
        <ele>348.122497</ele>
        <time>2026-03-19T11:19:24.412Z</time>
      </trkpt>
      <trkpt lat="50.130763" lon="10.026218">
        <ele>348.264620</ele>
        <time>2026-03-19T11:19:29.566Z</time>
      </trkpt>
      <trkpt lat="50.129940" lon="10.026463">
        <ele>349.408176</ele>
        <time>2026-03-19T11:19:57.422Z</time>
      </trkpt>
      <trkpt lat="50.128890" lon="10.026846">
        <ele>353.636457</ele>
        <time>2026-03-19T11:20:42.300Z</time>
      </trkpt>
      <trkpt lat="50.128566" lon="10.026982">
        <ele>354.952106</ele>
        <time>2026-03-19T11:20:57.123Z</time>
      </trkpt>
      <trkpt lat="50.128317" lon="10.027261">
        <ele>356.062293</ele>
        <time>2026-03-19T11:21:09.843Z</time>
      </trkpt>
      <trkpt lat="50.128077" lon="10.027732">
        <ele>357.239639</ele>
        <time>2026-03-19T11:21:24.774Z</time>
      </trkpt>
      <trkpt lat="50.127452" lon="10.029538">
        <ele>361.219798</ele>
        <time>2026-03-19T11:22:07.563Z</time>
      </trkpt>
      <trkpt lat="50.127097" lon="10.030273">
        <ele>360.563744</ele>
        <time>2026-03-19T11:22:29.969Z</time>
      </trkpt>
      <trkpt lat="50.126728" lon="10.030972">
        <ele>359.918216</ele>
        <time>2026-03-19T11:22:42.760Z</time>
      </trkpt>
      <trkpt lat="50.126539" lon="10.031626">
        <ele>359.406787</ele>
        <time>2026-03-19T11:22:54.410Z</time>
      </trkpt>
      <trkpt lat="50.126545" lon="10.031721">
        <ele>359.338732</ele>
        <time>2026-03-19T11:22:55.833Z</time>
      </trkpt>
      <trkpt lat="50.126573" lon="10.032208">
        <ele>356.360786</ele>
        <time>2026-03-19T11:23:02.846Z</time>
      </trkpt>
      <trkpt lat="50.126809" lon="10.032307">
        <ele>353.100456</ele>
        <time>2026-03-19T11:23:08.006Z</time>
      </trkpt>
      <trkpt lat="50.127055" lon="10.032218">
        <ele>349.731466</ele>
        <time>2026-03-19T11:23:13.179Z</time>
      </trkpt>
      <trkpt lat="50.127279" lon="10.032301">
        <ele>346.659939</ele>
        <time>2026-03-19T11:23:17.850Z</time>
      </trkpt>
      <trkpt lat="50.127751" lon="10.032402">
        <ele>340.304043</ele>
        <time>2026-03-19T11:23:27.405Z</time>
      </trkpt>
      <trkpt lat="50.128327" lon="10.032526">
        <ele>332.398944</ele>
        <time>2026-03-19T11:23:38.944Z</time>
      </trkpt>
      <trkpt lat="50.129020" lon="10.033347">
        <ele>320.150614</ele>
        <time>2026-03-19T11:23:56.340Z</time>
      </trkpt>
      <trkpt lat="50.129550" lon="10.033463">
        <ele>312.617673</ele>
        <time>2026-03-19T11:24:07.501Z</time>
      </trkpt>
      <trkpt lat="50.129756" lon="10.031902">
        <ele>302.946111</ele>
        <time>2026-03-19T11:24:29.929Z</time>
      </trkpt>
      <trkpt lat="50.129734" lon="10.031576">
        <ele>301.180759</ele>
        <time>2026-03-19T11:24:34.594Z</time>
      </trkpt>
      <trkpt lat="50.129812" lon="10.031541">
        <ele>300.498916</ele>
        <time>2026-03-19T11:24:36.351Z</time>
      </trkpt>
      <trkpt lat="50.130131" lon="10.032245">
        <ele>295.856073</ele>
        <time>2026-03-19T11:24:45.775Z</time>
      </trkpt>
      <trkpt lat="50.130378" lon="10.032880">
        <ele>292.810827</ele>
        <time>2026-03-19T11:24:53.990Z</time>
      </trkpt>
      <trkpt lat="50.130164" lon="10.031884">
        <ele>288.984036</ele>
        <time>2026-03-19T11:25:03.084Z</time>
      </trkpt>
      <trkpt lat="50.130074" lon="10.031322">
        <ele>286.873757</ele>
        <time>2026-03-19T11:25:08.334Z</time>
      </trkpt>
      <trkpt lat="50.130020" lon="10.030809">
        <ele>284.979872</ele>
        <time>2026-03-19T11:25:12.859Z</time>
      </trkpt>
      <trkpt lat="50.130051" lon="10.030523">
        <ele>283.515841</ele>
        <time>2026-03-19T11:25:15.224Z</time>
      </trkpt>
      <trkpt lat="50.130108" lon="10.030370">
        <ele>282.474732</ele>
        <time>2026-03-19T11:25:16.626Z</time>
      </trkpt>
      <trkpt lat="50.130236" lon="10.030309">
        <ele>281.246405</ele>
        <time>2026-03-19T11:25:18.260Z</time>
      </trkpt>
      <trkpt lat="50.130375" lon="10.030411">
        <ele>279.836626</ele>
        <time>2026-03-19T11:25:20.113Z</time>
      </trkpt>
      <trkpt lat="50.130630" lon="10.030760">
        <ele>276.723311</ele>
        <time>2026-03-19T11:25:24.167Z</time>
      </trkpt>
      <trkpt lat="50.130990" lon="10.031328">
        <ele>272.024106</ele>
        <time>2026-03-19T11:25:30.232Z</time>
      </trkpt>
      <trkpt lat="50.131315" lon="10.031748">
        <ele>268.150863</ele>
        <time>2026-03-19T11:25:35.253Z</time>
      </trkpt>
      <trkpt lat="50.131150" lon="10.031740">
        <ele>266.742582</ele>
        <time>2026-03-19T11:25:37.367Z</time>
      </trkpt>
      <trkpt lat="50.131029" lon="10.031800">
        <ele>265.663573</ele>
        <time>2026-03-19T11:25:38.977Z</time>
      </trkpt>
      <trkpt lat="50.131206" lon="10.032273">
        <ele>262.679858</ele>
        <time>2026-03-19T11:25:44.817Z</time>
      </trkpt>
      <trkpt lat="50.131255" lon="10.032308">
        <ele>262.221858</ele>
        <time>2026-03-19T11:25:45.529Z</time>
      </trkpt>
      <trkpt lat="50.131368" lon="10.032541">
        <ele>260.630191</ele>
        <time>2026-03-19T11:25:47.994Z</time>
      </trkpt>
      <trkpt lat="50.131624" lon="10.032938">
        <ele>257.562505</ele>
        <time>2026-03-19T11:25:52.781Z</time>
      </trkpt>
      <trkpt lat="50.131690" lon="10.032998">
        <ele>256.913318</ele>
        <time>2026-03-19T11:25:53.780Z</time>
      </trkpt>
      <trkpt lat="50.131764" lon="10.033056">
        <ele>256.209522</ele>
        <time>2026-03-19T11:25:54.864Z</time>
      </trkpt>
      <trkpt lat="50.132133" lon="10.033245">
        <ele>252.908903</ele>
        <time>2026-03-19T11:25:59.935Z</time>
      </trkpt>
      <trkpt lat="50.132239" lon="10.033254">
        <ele>252.262409</ele>
        <time>2026-03-19T11:26:01.258Z</time>
      </trkpt>
      <trkpt lat="50.132664" lon="10.033424">
        <ele>249.746590</ele>
        <time>2026-03-19T11:26:06.766Z</time>
      </trkpt>
      <trkpt lat="50.133347" lon="10.033642">
        <ele>245.749081</ele>
        <time>2026-03-19T11:26:15.821Z</time>
      </trkpt>
      <trkpt lat="50.133456" lon="10.033653">
        <ele>245.122760</ele>
        <time>2026-03-19T11:26:17.314Z</time>
      </trkpt>
      <trkpt lat="50.133488" lon="10.033655">
        <ele>244.939122</ele>
        <time>2026-03-19T11:26:17.756Z</time>
      </trkpt>
      <trkpt lat="50.133948" lon="10.033687">
        <ele>242.386374</ele>
        <time>2026-03-19T11:26:24.167Z</time>
      </trkpt>
      <trkpt lat="50.134133" lon="10.033733">
        <ele>241.833634</ele>
        <time>2026-03-19T11:26:26.793Z</time>
      </trkpt>
      <trkpt lat="50.134075" lon="10.034456">
        <ele>240.455574</ele>
        <time>2026-03-19T11:26:33.843Z</time>
      </trkpt>
      <trkpt lat="50.135140" lon="10.034955">
        <ele>237.174587</ele>
        <time>2026-03-19T11:26:50.478Z</time>
      </trkpt>
      <trkpt lat="50.135374" lon="10.035025">
        <ele>237.029844</ele>
        <time>2026-03-19T11:26:54.009Z</time>
      </trkpt>
      <trkpt lat="50.135534" lon="10.035038">
        <ele>236.933789</ele>
        <time>2026-03-19T11:26:56.466Z</time>
      </trkpt>
      <trkpt lat="50.135657" lon="10.035007">
        <ele>236.859091</ele>
        <time>2026-03-19T11:26:58.407Z</time>
      </trkpt>
      <trkpt lat="50.135823" lon="10.035365">
        <ele>236.689295</ele>
        <time>2026-03-19T11:27:03.024Z</time>
      </trkpt>
      <trkpt lat="50.136058" lon="10.035586">
        <ele>236.524790</ele>
        <time>2026-03-19T11:27:07.826Z</time>
      </trkpt>
      <trkpt lat="50.136168" lon="10.035699">
        <ele>236.445830</ele>
        <time>2026-03-19T11:27:10.441Z</time>
      </trkpt>
      <trkpt lat="50.136702" lon="10.036177">
        <ele>236.228779</ele>
        <time>2026-03-19T11:27:25.322Z</time>
      </trkpt>
      <trkpt lat="50.137125" lon="10.036461">
        <ele>238.402179</ele>
        <time>2026-03-19T11:27:38.920Z</time>
      </trkpt>
      <trkpt lat="50.137461" lon="10.036624">
        <ele>240.062856</ele>
        <time>2026-03-19T11:27:52.508Z</time>
      </trkpt>
      <trkpt lat="50.137780" lon="10.036847">
        <ele>241.712628</ele>
        <time>2026-03-19T11:28:09.293Z</time>
      </trkpt>
      <trkpt lat="50.138110" lon="10.037190">
        <ele>243.584063</ele>
        <time>2026-03-19T11:28:30.335Z</time>
      </trkpt>
      <trkpt lat="50.138170" lon="10.037285">
        <ele>243.987513</ele>
        <time>2026-03-19T11:28:34.512Z</time>
      </trkpt>
      <trkpt lat="50.138335" lon="10.037585">
        <ele>245.728172</ele>
        <time>2026-03-19T11:28:48.818Z</time>
      </trkpt>
      <trkpt lat="50.138568" lon="10.038205">
        <ele>249.874627</ele>
        <time>2026-03-19T11:29:22.096Z</time>
      </trkpt>
      <trkpt lat="50.138525" lon="10.038257">
        <ele>250.364333</ele>
        <time>2026-03-19T11:29:26.290Z</time>
      </trkpt>
      <trkpt lat="50.138480" lon="10.038235">
        <ele>250.788811</ele>
        <time>2026-03-19T11:29:29.634Z</time>
      </trkpt>
      <trkpt lat="50.138227" lon="10.037994">
        <ele>253.457031</ele>
        <time>2026-03-19T11:29:52.037Z</time>
      </trkpt>
      <trkpt lat="50.138366" lon="10.038541">
        <ele>256.851795</ele>
        <time>2026-03-19T11:30:23.578Z</time>
      </trkpt>
      <trkpt lat="50.138237" lon="10.038689">
        <ele>258.293102</ele>
        <time>2026-03-19T11:30:35.988Z</time>
      </trkpt>
      <trkpt lat="50.136132" lon="10.037970">
        <ele>273.653672</ele>
        <time>2026-03-19T11:32:56.573Z</time>
      </trkpt>
      <trkpt lat="50.135900" lon="10.037920">
        <ele>275.325916</ele>
        <time>2026-03-19T11:33:11.480Z</time>
      </trkpt>
      <trkpt lat="50.135598" lon="10.037996">
        <ele>277.510113</ele>
        <time>2026-03-19T11:33:31.552Z</time>
      </trkpt>
      <trkpt lat="50.135220" lon="10.038316">
        <ele>280.580833</ele>
        <time>2026-03-19T11:34:01.235Z</time>
      </trkpt>
      <trkpt lat="50.134994" lon="10.038320">
        <ele>282.194610</ele>
        <time>2026-03-19T11:34:17.648Z</time>
      </trkpt>
      <trkpt lat="50.134245" lon="10.038125">
        <ele>286.408151</ele>
        <time>2026-03-19T11:35:11.824Z</time>
      </trkpt>
      <trkpt lat="50.134011" lon="10.038040">
        <ele>286.901844</ele>
        <time>2026-03-19T11:35:26.116Z</time>
      </trkpt>
      <trkpt lat="50.133713" lon="10.037879">
        <ele>287.549864</ele>
        <time>2026-03-19T11:35:41.668Z</time>
      </trkpt>
      <trkpt lat="50.133536" lon="10.037662">
        <ele>288.012438</ele>
        <time>2026-03-19T11:35:50.578Z</time>
      </trkpt>
      <trkpt lat="50.133206" lon="10.037125">
        <ele>288.992286</ele>
        <time>2026-03-19T11:36:05.173Z</time>
      </trkpt>
      <trkpt lat="50.133048" lon="10.036929">
        <ele>289.407081</ele>
        <time>2026-03-19T11:36:10.600Z</time>
      </trkpt>
      <trkpt lat="50.132916" lon="10.036825">
        <ele>289.588827</ele>
        <time>2026-03-19T11:36:14.433Z</time>
      </trkpt>
      <trkpt lat="50.132634" lon="10.036677">
        <ele>289.415609</ele>
        <time>2026-03-19T11:36:21.977Z</time>
      </trkpt>
      <trkpt lat="50.132316" lon="10.036643">
        <ele>289.230039</ele>
        <time>2026-03-19T11:36:30.210Z</time>
      </trkpt>
      <trkpt lat="50.131847" lon="10.036847">
        <ele>288.946577</ele>
        <time>2026-03-19T11:36:44.022Z</time>
      </trkpt>
      <trkpt lat="50.131399" lon="10.037356">
        <ele>288.623915</ele>
        <time>2026-03-19T11:37:05.165Z</time>
      </trkpt>
      <trkpt lat="50.131048" lon="10.037862">
        <ele>290.034040</ele>
        <time>2026-03-19T11:37:28.119Z</time>
      </trkpt>
      <trkpt lat="50.130575" lon="10.038693">
        <ele>292.759861</ele>
        <time>2026-03-19T11:38:06.127Z</time>
      </trkpt>
      <trkpt lat="50.130333" lon="10.039186">
        <ele>294.282909</ele>
        <time>2026-03-19T11:38:26.723Z</time>
      </trkpt>
      <trkpt lat="50.130058" lon="10.040113">
        <ele>298.436552</ele>
        <time>2026-03-19T11:39:01.038Z</time>
      </trkpt>
      <trkpt lat="50.129843" lon="10.040248">
        <ele>300.416101</ele>
        <time>2026-03-19T11:39:15.474Z</time>
      </trkpt>
      <trkpt lat="50.129730" lon="10.040492">
        <ele>302.064252</ele>
        <time>2026-03-19T11:39:28.380Z</time>
      </trkpt>
      <trkpt lat="50.129702" lon="10.040866">
        <ele>304.125959</ele>
        <time>2026-03-19T11:39:45.617Z</time>
      </trkpt>
      <trkpt lat="50.129765" lon="10.041285">
        <ele>306.482400</ele>
        <time>2026-03-19T11:40:07.687Z</time>
      </trkpt>
      <trkpt lat="50.130029" lon="10.042524">
        <ele>314.825772</ele>
        <time>2026-03-19T11:41:28.934Z</time>
      </trkpt>
      <trkpt lat="50.130405" lon="10.043579">
        <ele>324.236552</ele>
        <time>2026-03-19T11:42:49.888Z</time>
      </trkpt>
      <trkpt lat="50.130443" lon="10.043783">
        <ele>325.892771</ele>
        <time>2026-03-19T11:43:02.790Z</time>
      </trkpt>
      <trkpt lat="50.130443" lon="10.044069">
        <ele>328.122496</ele>
        <time>2026-03-19T11:43:19.454Z</time>
      </trkpt>
      <trkpt lat="50.130393" lon="10.044549">
        <ele>331.913779</ele>
        <time>2026-03-19T11:43:45.446Z</time>
      </trkpt>
      <trkpt lat="50.130362" lon="10.044776">
        <ele>333.129627</ele>
        <time>2026-03-19T11:43:56.886Z</time>
      </trkpt>
      <trkpt lat="50.130311" lon="10.045646">
        <ele>336.034344</ele>
        <time>2026-03-19T11:44:33.790Z</time>
      </trkpt>
      <trkpt lat="50.130246" lon="10.046236">
        <ele>338.024786</ele>
        <time>2026-03-19T11:44:54.457Z</time>
      </trkpt>
      <trkpt lat="50.130121" lon="10.046546">
        <ele>339.242454</ele>
        <time>2026-03-19T11:45:06.054Z</time>
      </trkpt>
      <trkpt lat="50.129939" lon="10.046846">
        <ele>340.615785</ele>
        <time>2026-03-19T11:45:18.261Z</time>
      </trkpt>
      <trkpt lat="50.129287" lon="10.048070">
        <ele>344.400049</ele>
        <time>2026-03-19T11:46:03.542Z</time>
      </trkpt>
      <trkpt lat="50.128997" lon="10.048286">
        <ele>345.421074</ele>
        <time>2026-03-19T11:46:17.920Z</time>
      </trkpt>
      <trkpt lat="50.128821" lon="10.048339">
        <ele>345.990581</ele>
        <time>2026-03-19T11:46:26.112Z</time>
      </trkpt>
      <trkpt lat="50.128523" lon="10.048285">
        <ele>346.943747</ele>
        <time>2026-03-19T11:46:40.680Z</time>
      </trkpt>
      <trkpt lat="50.127811" lon="10.048148">
        <ele>350.481868</ele>
        <time>2026-03-19T11:47:12.111Z</time>
      </trkpt>
      <trkpt lat="50.127674" lon="10.048103">
        <ele>351.302179</ele>
        <time>2026-03-19T11:47:18.912Z</time>
      </trkpt>
      <trkpt lat="50.125672" lon="10.047973">
        <ele>361.529053</ele>
        <time>2026-03-19T11:49:03.170Z</time>
      </trkpt>
      <trkpt lat="50.125589" lon="10.047893">
        <ele>361.919426</ele>
        <time>2026-03-19T11:49:07.065Z</time>
      </trkpt>
      <trkpt lat="50.125351" lon="10.048266">
        <ele>363.269320</ele>
        <time>2026-03-19T11:49:18.631Z</time>
      </trkpt>
      <trkpt lat="50.124848" lon="10.048959">
        <ele>365.394452</ele>
        <time>2026-03-19T11:49:35.928Z</time>
      </trkpt>
      <trkpt lat="50.124570" lon="10.049475">
        <ele>365.137844</ele>
        <time>2026-03-19T11:49:43.922Z</time>
      </trkpt>
      <trkpt lat="50.124343" lon="10.049990">
        <ele>364.899902</ele>
        <time>2026-03-19T11:49:51.090Z</time>
      </trkpt>
      <trkpt lat="50.124007" lon="10.050856">
        <ele>364.514517</ele>
        <time>2026-03-19T11:50:01.600Z</time>
      </trkpt>
      <trkpt lat="50.123844" lon="10.051385">
        <ele>364.261814</ele>
        <time>2026-03-19T11:50:07.631Z</time>
      </trkpt>
      <trkpt lat="50.123760" lon="10.051779">
        <ele>364.060790</ele>
        <time>2026-03-19T11:50:11.863Z</time>
      </trkpt>
      <trkpt lat="50.123965" lon="10.053538">
        <ele>363.195223</ele>
        <time>2026-03-19T11:50:31.111Z</time>
      </trkpt>
      <trkpt lat="50.124224" lon="10.055613">
        <ele>364.518263</ele>
        <time>2026-03-19T11:51:05.135Z</time>
      </trkpt>
      <trkpt lat="50.124534" lon="10.057050">
        <ele>365.461320</ele>
        <time>2026-03-19T11:51:34.170Z</time>
      </trkpt>
      <trkpt lat="50.125079" lon="10.059107">
        <ele>365.947644</ele>
        <time>2026-03-19T11:52:04.425Z</time>
      </trkpt>
      <trkpt lat="50.125267" lon="10.059788">
        <ele>365.153133</ele>
        <time>2026-03-19T11:52:11.472Z</time>
      </trkpt>
      <trkpt lat="50.125582" lon="10.061053">
        <ele>363.502914</ele>
        <time>2026-03-19T11:52:24.075Z</time>
      </trkpt>
      <trkpt lat="50.125723" lon="10.062416">
        <ele>362.799867</ele>
        <time>2026-03-19T11:52:38.888Z</time>
      </trkpt>
      <trkpt lat="50.126087" lon="10.065765">
        <ele>364.067765</ele>
        <time>2026-03-19T11:53:34.634Z</time>
      </trkpt>
      <trkpt lat="50.127023" lon="10.069856">
        <ele>364.227095</ele>
        <time>2026-03-19T11:54:27.079Z</time>
      </trkpt>
      <trkpt lat="50.128218" lon="10.072417">
        <ele>364.000697</ele>
        <time>2026-03-19T11:55:03.465Z</time>
      </trkpt>
      <trkpt lat="50.129640" lon="10.072168">
        <ele>366.014621</ele>
        <time>2026-03-19T11:55:40.952Z</time>
      </trkpt>
      <trkpt lat="50.130077" lon="10.075956">
        <ele>371.745461</ele>
        <time>2026-03-19T11:57:08.939Z</time>
      </trkpt>
      <trkpt lat="50.130089" lon="10.076448">
        <ele>371.711115</ele>
        <time>2026-03-19T11:57:16.310Z</time>
      </trkpt>
      <trkpt lat="50.130100" lon="10.076695">
        <ele>371.693843</ele>
        <time>2026-03-19T11:57:19.412Z</time>
      </trkpt>
      <trkpt lat="50.130140" lon="10.076691">
        <ele>371.689481</ele>
        <time>2026-03-19T11:57:20.684Z</time>
      </trkpt>
      <trkpt lat="50.130234" lon="10.076665">
        <ele>371.679092</ele>
        <time>2026-03-19T11:57:23.587Z</time>
      </trkpt>
      <trkpt lat="50.131659" lon="10.075789">
        <ele>368.223435</ele>
        <time>2026-03-19T11:58:03.558Z</time>
      </trkpt>
      <trkpt lat="50.132601" lon="10.075349">
        <ele>364.182868</ele>
        <time>2026-03-19T11:58:27.294Z</time>
      </trkpt>
      <trkpt lat="50.132673" lon="10.075219">
        <ele>363.534470</ele>
        <time>2026-03-19T11:58:29.901Z</time>
      </trkpt>
      <trkpt lat="50.132709" lon="10.075057">
        <ele>362.887372</ele>
        <time>2026-03-19T11:58:32.491Z</time>
      </trkpt>
      <trkpt lat="50.132753" lon="10.075303">
        <ele>361.923486</ele>
        <time>2026-03-19T11:58:36.330Z</time>
      </trkpt>
      <trkpt lat="50.132787" lon="10.076385">
        <ele>357.835041</ele>
        <time>2026-03-19T11:58:52.592Z</time>
      </trkpt>
      <trkpt lat="50.132797" lon="10.077338">
        <ele>354.237874</ele>
        <time>2026-03-19T11:59:06.743Z</time>
      </trkpt>
      <trkpt lat="50.132749" lon="10.078724">
        <ele>350.054156</ele>
        <time>2026-03-19T11:59:27.497Z</time>
      </trkpt>
      <trkpt lat="50.132786" lon="10.078916">
        <ele>349.468816</ele>
        <time>2026-03-19T11:59:30.615Z</time>
      </trkpt>
      <trkpt lat="50.132969" lon="10.079619">
        <ele>347.253582</ele>
        <time>2026-03-19T11:59:42.730Z</time>
      </trkpt>
      <trkpt lat="50.133070" lon="10.080078">
        <ele>345.836750</ele>
        <time>2026-03-19T11:59:50.856Z</time>
      </trkpt>
      <trkpt lat="50.133244" lon="10.080853">
        <ele>344.956295</ele>
        <time>2026-03-19T12:00:05.424Z</time>
      </trkpt>
      <trkpt lat="50.133333" lon="10.081582">
        <ele>344.411549</ele>
        <time>2026-03-19T12:00:19.283Z</time>
      </trkpt>
      <trkpt lat="50.133348" lon="10.082053">
        <ele>344.065383</ele>
        <time>2026-03-19T12:00:28.216Z</time>
      </trkpt>
      <trkpt lat="50.133317" lon="10.082612">
        <ele>343.653514</ele>
        <time>2026-03-19T12:00:39.031Z</time>
      </trkpt>
      <trkpt lat="50.133183" lon="10.083194">
        <ele>343.397794</ele>
        <time>2026-03-19T12:00:51.617Z</time>
      </trkpt>
      <trkpt lat="50.133093" lon="10.083403">
        <ele>343.390390</ele>
        <time>2026-03-19T12:00:56.738Z</time>
      </trkpt>
      <trkpt lat="50.132959" lon="10.083612">
        <ele>343.381697</ele>
        <time>2026-03-19T12:01:02.739Z</time>
      </trkpt>
      <trkpt lat="50.132877" lon="10.083687">
        <ele>343.377336</ele>
        <time>2026-03-19T12:01:05.789Z</time>
      </trkpt>
      <trkpt lat="50.132797" lon="10.083700">
        <ele>343.373646</ele>
        <time>2026-03-19T12:01:08.322Z</time>
      </trkpt>
      <trkpt lat="50.132430" lon="10.083633">
        <ele>343.356694</ele>
        <time>2026-03-19T12:01:20.250Z</time>
      </trkpt>
      <trkpt lat="50.131978" lon="10.084595">
        <ele>343.321577</ele>
        <time>2026-03-19T12:01:45.161Z</time>
      </trkpt>
      <trkpt lat="50.131887" lon="10.084857">
        <ele>343.312636</ele>
        <time>2026-03-19T12:01:51.110Z</time>
      </trkpt>
      <trkpt lat="50.131743" lon="10.085608">
        <ele>343.289114</ele>
        <time>2026-03-19T12:02:05.817Z</time>
      </trkpt>
      <trkpt lat="50.131644" lon="10.085994">
        <ele>343.276639</ele>
        <time>2026-03-19T12:02:13.576Z</time>
      </trkpt>
      <trkpt lat="50.131624" lon="10.086383">
        <ele>343.264929</ele>
        <time>2026-03-19T12:02:21.896Z</time>
      </trkpt>
      <trkpt lat="50.131647" lon="10.086501">
        <ele>343.261228</ele>
        <time>2026-03-19T12:02:24.628Z</time>
      </trkpt>
      <trkpt lat="50.131726" lon="10.086625">
        <ele>343.255982</ele>
        <time>2026-03-19T12:02:28.644Z</time>
      </trkpt>
      <trkpt lat="50.131777" lon="10.087072">
        <ele>343.242358</ele>
        <time>2026-03-19T12:02:39.116Z</time>
      </trkpt>
      <trkpt lat="50.131912" lon="10.087267">
        <ele>343.360803</ele>
        <time>2026-03-19T12:02:45.634Z</time>
      </trkpt>
      <trkpt lat="50.131664" lon="10.087821">
        <ele>343.799930</ele>
        <time>2026-03-19T12:02:56.048Z</time>
      </trkpt>
      <trkpt lat="50.131898" lon="10.087921">
        <ele>344.045899</ele>
        <time>2026-03-19T12:03:05.090Z</time>
      </trkpt>
      <trkpt lat="50.132041" lon="10.087870">
        <ele>344.194612</ele>
        <time>2026-03-19T12:03:10.620Z</time>
      </trkpt>
      <trkpt lat="50.132748" lon="10.087013">
        <ele>345.197648</ele>
        <time>2026-03-19T12:03:43.689Z</time>
      </trkpt>
      <trkpt lat="50.132904" lon="10.086886">
        <ele>345.806704</ele>
        <time>2026-03-19T12:03:49.873Z</time>
      </trkpt>
      <trkpt lat="50.132954" lon="10.086797">
        <ele>346.069274</ele>
        <time>2026-03-19T12:03:52.656Z</time>
      </trkpt>
      <trkpt lat="50.132956" lon="10.086628">
        <ele>346.444297</ele>
        <time>2026-03-19T12:03:56.897Z</time>
      </trkpt>
      <trkpt lat="50.132992" lon="10.086519">
        <ele>346.716348</ele>
        <time>2026-03-19T12:04:00.064Z</time>
      </trkpt>
      <trkpt lat="50.133076" lon="10.086444">
        <ele>347.051345</ele>
        <time>2026-03-19T12:04:04.157Z</time>
      </trkpt>
      <trkpt lat="50.133195" lon="10.086264">
        <ele>347.625056</ele>
        <time>2026-03-19T12:04:11.602Z</time>
      </trkpt>
      <trkpt lat="50.133657" lon="10.086103">
        <ele>349.263567</ele>
        <time>2026-03-19T12:04:35.698Z</time>
      </trkpt>
      <trkpt lat="50.133865" lon="10.086621">
        <ele>350.619710</ele>
        <time>2026-03-19T12:04:58.176Z</time>
      </trkpt>
      <trkpt lat="50.134194" lon="10.086987">
        <ele>352.247566</ele>
        <time>2026-03-19T12:05:23.238Z</time>
      </trkpt>
      <trkpt lat="50.134226" lon="10.087180">
        <ele>352.828752</ele>
        <time>2026-03-19T12:05:31.294Z</time>
      </trkpt>
      <trkpt lat="50.134353" lon="10.087390">
        <ele>353.670461</ele>
        <time>2026-03-19T12:05:43.101Z</time>
      </trkpt>
      <trkpt lat="50.134768" lon="10.089087">
        <ele>358.965651</ele>
        <time>2026-03-19T12:06:46.979Z</time>
      </trkpt>
      <trkpt lat="50.134915" lon="10.089534">
        <ele>359.683523</ele>
        <time>2026-03-19T12:07:00.726Z</time>
      </trkpt>
      <trkpt lat="50.135152" lon="10.089787">
        <ele>359.974973</ele>
        <time>2026-03-19T12:07:11.819Z</time>
      </trkpt>
      <trkpt lat="50.135320" lon="10.089793">
        <ele>360.145521</ele>
        <time>2026-03-19T12:07:17.802Z</time>
      </trkpt>
      <trkpt lat="50.135398" lon="10.089839">
        <ele>360.230150</ele>
        <time>2026-03-19T12:07:20.582Z</time>
      </trkpt>
      <trkpt lat="50.135726" lon="10.089780">
        <ele>360.565242</ele>
        <time>2026-03-19T12:07:31.293Z</time>
      </trkpt>
      <trkpt lat="50.135778" lon="10.089619">
        <ele>360.682521</ele>
        <time>2026-03-19T12:07:34.912Z</time>
      </trkpt>
      <trkpt lat="50.135786" lon="10.089477">
        <ele>360.775251</ele>
        <time>2026-03-19T12:07:37.784Z</time>
      </trkpt>
      <trkpt lat="50.135870" lon="10.089461">
        <ele>360.861136</ele>
        <time>2026-03-19T12:07:40.394Z</time>
      </trkpt>
      <trkpt lat="50.136201" lon="10.089584">
        <ele>361.206465</ele>
        <time>2026-03-19T12:07:51.384Z</time>
      </trkpt>
      <trkpt lat="50.136414" lon="10.089568">
        <ele>361.415455</ele>
        <time>2026-03-19T12:07:58.800Z</time>
      </trkpt>
      <trkpt lat="50.136486" lon="10.089610">
        <ele>361.488952</ele>
        <time>2026-03-19T12:08:01.597Z</time>
      </trkpt>
      <trkpt lat="50.136533" lon="10.089687">
        <ele>361.554117</ele>
        <time>2026-03-19T12:08:04.135Z</time>
      </trkpt>
      <trkpt lat="50.136590" lon="10.089873">
        <ele>361.680466</ele>
        <time>2026-03-19T12:08:09.136Z</time>
      </trkpt>
      <trkpt lat="50.136661" lon="10.090211">
        <ele>361.898451</ele>
        <time>2026-03-19T12:08:18.020Z</time>
      </trkpt>
      <trkpt lat="50.137687" lon="10.090296">
        <ele>362.880844</ele>
        <time>2026-03-19T12:08:43.916Z</time>
      </trkpt>
      <trkpt lat="50.137743" lon="10.089881">
        <ele>363.022188</ele>
        <time>2026-03-19T12:08:51.036Z</time>
      </trkpt>
      <trkpt lat="50.137715" lon="10.089424">
        <ele>363.039875</ele>
        <time>2026-03-19T12:08:58.122Z</time>
      </trkpt>
      <trkpt lat="50.137924" lon="10.089077">
        <ele>363.058220</ele>
        <time>2026-03-19T12:09:07.757Z</time>
      </trkpt>
      <trkpt lat="50.138070" lon="10.089001">
        <ele>363.067471</ele>
        <time>2026-03-19T12:09:12.417Z</time>
      </trkpt>
      <trkpt lat="50.138200" lon="10.088797">
        <ele>363.078554</ele>
        <time>2026-03-19T12:09:17.894Z</time>
      </trkpt>
      <trkpt lat="50.138326" lon="10.088750">
        <ele>363.086341</ele>
        <time>2026-03-19T12:09:21.733Z</time>
      </trkpt>
      <trkpt lat="50.138430" lon="10.088766">
        <ele>363.092623</ele>
        <time>2026-03-19T12:09:24.840Z</time>
      </trkpt>
      <trkpt lat="50.138571" lon="10.088935">
        <ele>363.103310</ele>
        <time>2026-03-19T12:09:30.223Z</time>
      </trkpt>
      <trkpt lat="50.138886" lon="10.089037">
        <ele>363.130261</ele>
        <time>2026-03-19T12:09:40.406Z</time>
      </trkpt>
      <trkpt lat="50.139010" lon="10.089026">
        <ele>363.327621</ele>
        <time>2026-03-19T12:09:44.411Z</time>
      </trkpt>
      <trkpt lat="50.139171" lon="10.089132">
        <ele>363.605304</ele>
        <time>2026-03-19T12:09:50.339Z</time>
      </trkpt>
      <trkpt lat="50.139248" lon="10.089140">
        <ele>363.727932</ele>
        <time>2026-03-19T12:09:53.071Z</time>
      </trkpt>
      <trkpt lat="50.139450" lon="10.089046">
        <ele>364.062893</ele>
        <time>2026-03-19T12:10:00.915Z</time>
      </trkpt>
      <trkpt lat="50.139576" lon="10.089187">
        <ele>364.309286</ele>
        <time>2026-03-19T12:10:07.129Z</time>
      </trkpt>
      <trkpt lat="50.139724" lon="10.089208">
        <ele>364.545436</ele>
        <time>2026-03-19T12:10:13.285Z</time>
      </trkpt>
      <trkpt lat="50.139791" lon="10.089333">
        <ele>364.711394</ele>
        <time>2026-03-19T12:10:17.671Z</time>
      </trkpt>
      <trkpt lat="50.140045" lon="10.089555">
        <ele>365.174025</ele>
        <time>2026-03-19T12:10:29.743Z</time>
      </trkpt>
      <trkpt lat="50.140097" lon="10.089564">
        <ele>365.257163</ele>
        <time>2026-03-19T12:10:31.914Z</time>
      </trkpt>
      <trkpt lat="50.140226" lon="10.089713">
        <ele>365.512207</ele>
        <time>2026-03-19T12:10:38.812Z</time>
      </trkpt>
      <trkpt lat="50.140294" lon="10.089702">
        <ele>365.620841</ele>
        <time>2026-03-19T12:10:41.866Z</time>
      </trkpt>
      <trkpt lat="50.140557" lon="10.090059">
        <ele>366.365325</ele>
        <time>2026-03-19T12:10:57.677Z</time>
      </trkpt>
      <trkpt lat="50.140554" lon="10.090041">
        <ele>366.402842</ele>
        <time>2026-03-19T12:10:58.055Z</time>
      </trkpt>
      <trkpt lat="50.140591" lon="10.089992">
        <ele>366.555589</ele>
        <time>2026-03-19T12:10:59.652Z</time>
      </trkpt>
      <trkpt lat="50.140648" lon="10.089937">
        <ele>366.766526</ele>
        <time>2026-03-19T12:11:01.946Z</time>
      </trkpt>
      <trkpt lat="50.140832" lon="10.089782">
        <ele>367.424664</ele>
        <time>2026-03-19T12:11:09.137Z</time>
      </trkpt>
      <trkpt lat="50.141191" lon="10.089500">
        <ele>368.689698</ele>
        <time>2026-03-19T12:11:28.474Z</time>
      </trkpt>
      <trkpt lat="50.141336" lon="10.088786">
        <ele>370.200535</ele>
        <time>2026-03-19T12:11:45.960Z</time>
      </trkpt>
      <trkpt lat="50.142051" lon="10.086954">
        <ele>374.241888</ele>
        <time>2026-03-19T12:12:40.865Z</time>
      </trkpt>
      <trkpt lat="50.142444" lon="10.085812">
        <ele>376.597978</ele>
        <time>2026-03-19T12:13:08.246Z</time>
      </trkpt>
      <trkpt lat="50.142249" lon="10.085059">
        <ele>376.919073</ele>
        <time>2026-03-19T12:13:27.646Z</time>
      </trkpt>
      <trkpt lat="50.142225" lon="10.084895">
        <ele>376.959551</ele>
        <time>2026-03-19T12:13:31.467Z</time>
      </trkpt>
      <trkpt lat="50.142381" lon="10.084698">
        <ele>377.034899</ele>
        <time>2026-03-19T12:13:38.378Z</time>
      </trkpt>
      <trkpt lat="50.143571" lon="10.083630">
        <ele>376.721248</ele>
        <time>2026-03-19T12:14:21.424Z</time>
      </trkpt>
      <trkpt lat="50.144119" lon="10.082982">
        <ele>375.360290</ele>
        <time>2026-03-19T12:14:40.484Z</time>
      </trkpt>
      <trkpt lat="50.144141" lon="10.082955">
        <ele>375.304889</ele>
        <time>2026-03-19T12:14:41.228Z</time>
      </trkpt>
      <trkpt lat="50.144435" lon="10.082643">
        <ele>374.601131</ele>
        <time>2026-03-19T12:14:50.539Z</time>
      </trkpt>
      <trkpt lat="50.144659" lon="10.082319">
        <ele>373.996572</ele>
        <time>2026-03-19T12:14:58.318Z</time>
      </trkpt>
      <trkpt lat="50.144862" lon="10.081945">
        <ele>373.465345</ele>
        <time>2026-03-19T12:15:06.226Z</time>
      </trkpt>
      <trkpt lat="50.145396" lon="10.080638">
        <ele>371.867410</ele>
        <time>2026-03-19T12:15:32.343Z</time>
      </trkpt>
      <trkpt lat="50.145562" lon="10.080139">
        <ele>371.287811</ele>
        <time>2026-03-19T12:15:43.571Z</time>
      </trkpt>
      <trkpt lat="50.145739" lon="10.079605">
        <ele>371.393853</ele>
        <time>2026-03-19T12:15:58.807Z</time>
      </trkpt>
      <trkpt lat="50.145748" lon="10.079510">
        <ele>371.537180</ele>
        <time>2026-03-19T12:16:01.500Z</time>
      </trkpt>
      <trkpt lat="50.145761" lon="10.079296">
        <ele>371.858004</ele>
        <time>2026-03-19T12:16:07.906Z</time>
      </trkpt>
      <trkpt lat="50.146156" lon="10.077848">
        <ele>374.206771</ele>
        <time>2026-03-19T12:16:58.886Z</time>
      </trkpt>
      <trkpt lat="50.146352" lon="10.077247">
        <ele>375.101830</ele>
        <time>2026-03-19T12:17:17.715Z</time>
      </trkpt>
      <trkpt lat="50.146375" lon="10.076925">
        <ele>374.682856</ele>
        <time>2026-03-19T12:17:25.403Z</time>
      </trkpt>
      <trkpt lat="50.146882" lon="10.074703">
        <ele>371.632775</ele>
        <time>2026-03-19T12:18:05.553Z</time>
      </trkpt>
      <trkpt lat="50.146969" lon="10.074431">
        <ele>370.905629</ele>
        <time>2026-03-19T12:18:10.259Z</time>
      </trkpt>
      <trkpt lat="50.147464" lon="10.073333">
        <ele>367.130079</ele>
        <time>2026-03-19T12:18:30.714Z</time>
      </trkpt>
      <trkpt lat="50.147667" lon="10.072797">
        <ele>365.379085</ele>
        <time>2026-03-19T12:18:40.199Z</time>
      </trkpt>
      <trkpt lat="50.147698" lon="10.072642">
        <ele>364.922438</ele>
        <time>2026-03-19T12:18:42.784Z</time>
      </trkpt>
      <trkpt lat="50.147714" lon="10.072514">
        <ele>364.555677</ele>
        <time>2026-03-19T12:18:44.889Z</time>
      </trkpt>
      <trkpt lat="50.147748" lon="10.072247">
        <ele>363.790106</ele>
        <time>2026-03-19T12:18:49.432Z</time>
      </trkpt>
      <trkpt lat="50.147741" lon="10.071739">
        <ele>362.566166</ele>
        <time>2026-03-19T12:18:58.296Z</time>
      </trkpt>
      <trkpt lat="50.147748" lon="10.071400">
        <ele>361.766401</ele>
        <time>2026-03-19T12:19:04.266Z</time>
      </trkpt>
      <trkpt lat="50.147741" lon="10.071739">
        <ele>360.966636</ele>
        <time>2026-03-19T12:19:10.156Z</time>
      </trkpt>
      <trkpt lat="50.147922" lon="10.071540">
        <ele>360.151920</ele>
        <time>2026-03-19T12:19:16.042Z</time>
      </trkpt>
      <trkpt lat="50.148001" lon="10.071604">
        <ele>359.824390</ele>
        <time>2026-03-19T12:19:18.369Z</time>
      </trkpt>
      <trkpt lat="50.148221" lon="10.071679">
        <ele>358.995772</ele>
        <time>2026-03-19T12:19:24.145Z</time>
      </trkpt>
      <trkpt lat="50.148575" lon="10.071437">
        <ele>357.573670</ele>
        <time>2026-03-19T12:19:33.739Z</time>
      </trkpt>
      <trkpt lat="50.149018" lon="10.071271">
        <ele>354.511245</ele>
        <time>2026-03-19T12:19:44.353Z</time>
      </trkpt>
      <trkpt lat="50.149248" lon="10.071260">
        <ele>352.611690</ele>
        <time>2026-03-19T12:19:49.434Z</time>
      </trkpt>
      <trkpt lat="50.149872" lon="10.072048">
        <ele>345.985290</ele>
        <time>2026-03-19T12:20:06.814Z</time>
      </trkpt>
      <trkpt lat="50.149925" lon="10.071876">
        <ele>344.975733</ele>
        <time>2026-03-19T12:20:09.470Z</time>
      </trkpt>
      <trkpt lat="50.149999" lon="10.071380">
        <ele>342.281875</ele>
        <time>2026-03-19T12:20:16.595Z</time>
      </trkpt>
      <trkpt lat="50.150066" lon="10.071168">
        <ele>340.920091</ele>
        <time>2026-03-19T12:20:19.931Z</time>
      </trkpt>
      <trkpt lat="50.150057" lon="10.070968">
        <ele>339.755234</ele>
        <time>2026-03-19T12:20:22.773Z</time>
      </trkpt>
      <trkpt lat="50.149841" lon="10.069617">
        <ele>331.665300</ele>
        <time>2026-03-19T12:20:42.548Z</time>
      </trkpt>
      <trkpt lat="50.149631" lon="10.068584">
        <ele>325.381980</ele>
        <time>2026-03-19T12:20:57.490Z</time>
      </trkpt>
      <trkpt lat="50.149447" lon="10.067867">
        <ele>321.016404</ele>
        <time>2026-03-19T12:21:07.961Z</time>
      </trkpt>
      <trkpt lat="50.149123" lon="10.066982">
        <ele>315.255291</ele>
        <time>2026-03-19T12:21:22.082Z</time>
      </trkpt>
      <trkpt lat="50.149349" lon="10.067210">
        <ele>312.881509</ele>
        <time>2026-03-19T12:21:27.963Z</time>
      </trkpt>
      <trkpt lat="50.149452" lon="10.067386">
        <ele>311.534264</ele>
        <time>2026-03-19T12:21:31.401Z</time>
      </trkpt>
      <trkpt lat="50.149769" lon="10.067737">
        <ele>309.321603</ele>
        <time>2026-03-19T12:21:40.525Z</time>
      </trkpt>
      <trkpt lat="50.149943" lon="10.067876">
        <ele>308.709882</ele>
        <time>2026-03-19T12:21:45.371Z</time>
      </trkpt>
      <trkpt lat="50.150070" lon="10.068028">
        <ele>308.209017</ele>
        <time>2026-03-19T12:21:49.535Z</time>
      </trkpt>
      <trkpt lat="50.150096" lon="10.068012">
        <ele>308.121553</ele>
        <time>2026-03-19T12:21:50.219Z</time>
      </trkpt>
      <trkpt lat="50.151160" lon="10.070061">
        <ele>304.125238</ele>
        <time>2026-03-19T12:22:36.760Z</time>
      </trkpt>
      <trkpt lat="50.151317" lon="10.070338">
        <ele>304.010669</ele>
        <time>2026-03-19T12:22:43.731Z</time>
      </trkpt>
      <trkpt lat="50.151474" lon="10.070615">
        <ele>303.896100</ele>
        <time>2026-03-19T12:22:50.917Z</time>
      </trkpt>
      <trkpt lat="50.151936" lon="10.072031">
        <ele>303.839986</ele>
        <time>2026-03-19T12:23:23.626Z</time>
      </trkpt>
      <trkpt lat="50.152270" lon="10.073414">
        <ele>305.653450</ele>
        <time>2026-03-19T12:24:07.762Z</time>
      </trkpt>
      <trkpt lat="50.152289" lon="10.073707">
        <ele>306.014794</ele>
        <time>2026-03-19T12:24:16.306Z</time>
      </trkpt>
      <trkpt lat="50.152239" lon="10.073835">
        <ele>306.198733</ele>
        <time>2026-03-19T12:24:20.746Z</time>
      </trkpt>
      <trkpt lat="50.152093" lon="10.073973">
        <ele>306.525590</ele>
        <time>2026-03-19T12:24:28.404Z</time>
      </trkpt>
      <trkpt lat="50.151463" lon="10.075061">
        <ele>305.004339</ele>
        <time>2026-03-19T12:25:01.102Z</time>
      </trkpt>
      <trkpt lat="50.151797" lon="10.075384">
        <ele>303.957856</ele>
        <time>2026-03-19T12:25:10.875Z</time>
      </trkpt>
      <trkpt lat="50.151957" lon="10.075458">
        <ele>303.513407</ele>
        <time>2026-03-19T12:25:14.773Z</time>
      </trkpt>
      <trkpt lat="50.152662" lon="10.074516">
        <ele>301.900431</ele>
        <time>2026-03-19T12:25:26.784Z</time>
      </trkpt>
      <trkpt lat="50.152752" lon="10.074276">
        <ele>301.795017</ele>
        <time>2026-03-19T12:25:29.243Z</time>
      </trkpt>
      <trkpt lat="50.152816" lon="10.073959">
        <ele>301.669027</ele>
        <time>2026-03-19T12:25:32.409Z</time>
      </trkpt>
      <trkpt lat="50.152956" lon="10.074326">
        <ele>301.507118</ele>
        <time>2026-03-19T12:25:37.463Z</time>
      </trkpt>
      <trkpt lat="50.153115" lon="10.074609">
        <ele>301.364440</ele>
        <time>2026-03-19T12:25:44.309Z</time>
      </trkpt>
      <trkpt lat="50.153226" lon="10.074760">
        <ele>301.277326</ele>
        <time>2026-03-19T12:25:49.657Z</time>
      </trkpt>
      <trkpt lat="50.153346" lon="10.074840">
        <ele>301.200126</ele>
        <time>2026-03-19T12:25:55.387Z</time>
      </trkpt>
      <trkpt lat="50.153472" lon="10.074876">
        <ele>301.124344</ele>
        <time>2026-03-19T12:26:01.791Z</time>
      </trkpt>
      <trkpt lat="50.154318" lon="10.074758">
        <ele>302.744112</ele>
        <time>2026-03-19T12:26:44.378Z</time>
      </trkpt>
      <trkpt lat="50.154460" lon="10.074274">
        <ele>303.473832</ele>
        <time>2026-03-19T12:26:58.769Z</time>
      </trkpt>
      <trkpt lat="50.154426" lon="10.074080">
        <ele>303.749537</ele>
        <time>2026-03-19T12:27:03.022Z</time>
      </trkpt>
      <trkpt lat="50.154365" lon="10.073969">
        <ele>303.949999</ele>
        <time>2026-03-19T12:27:05.925Z</time>
      </trkpt>
      <trkpt lat="50.154035" lon="10.073977">
        <ele>304.656111</ele>
        <time>2026-03-19T12:27:15.625Z</time>
      </trkpt>
      <trkpt lat="50.153833" lon="10.074121">
        <ele>304.601430</ele>
        <time>2026-03-19T12:27:21.715Z</time>
      </trkpt>
      <trkpt lat="50.153714" lon="10.074053">
        <ele>304.159705</ele>
        <time>2026-03-19T12:27:25.064Z</time>
      </trkpt>
      <trkpt lat="50.153570" lon="10.073874">
        <ele>303.518017</ele>
        <time>2026-03-19T12:27:29.684Z</time>
      </trkpt>
      <trkpt lat="50.153524" lon="10.073694">
        <ele>303.085210</ele>
        <time>2026-03-19T12:27:32.664Z</time>
      </trkpt>
      <trkpt lat="50.153401" lon="10.071732">
        <ele>298.682361</ele>
        <time>2026-03-19T12:28:04.027Z</time>
      </trkpt>
      <trkpt lat="50.153285" lon="10.070718">
        <ele>297.176164</ele>
        <time>2026-03-19T12:28:21.343Z</time>
      </trkpt>
      <trkpt lat="50.153242" lon="10.070481">
        <ele>296.817823</ele>
        <time>2026-03-19T12:28:25.438Z</time>
      </trkpt>
      <trkpt lat="50.153169" lon="10.070073">
        <ele>296.201561</ele>
        <time>2026-03-19T12:28:32.445Z</time>
      </trkpt>
      <trkpt lat="50.152719" lon="10.068458">
        <ele>296.363626</ele>
        <time>2026-03-19T12:29:04.748Z</time>
      </trkpt>
      <trkpt lat="50.152693" lon="10.067994">
        <ele>297.656222</ele>
        <time>2026-03-19T12:29:18.775Z</time>
      </trkpt>
      <trkpt lat="50.152758" lon="10.067570">
        <ele>298.866107</ele>
        <time>2026-03-19T12:29:34.876Z</time>
      </trkpt>
      <trkpt lat="50.152929" lon="10.067116">
        <ele>300.327596</ele>
        <time>2026-03-19T12:29:57.799Z</time>
      </trkpt>
      <trkpt lat="50.153140" lon="10.066688">
        <ele>301.826251</ele>
        <time>2026-03-19T12:30:26.234Z</time>
      </trkpt>
      <trkpt lat="50.153588" lon="10.066206">
        <ele>302.941171</ele>
        <time>2026-03-19T12:31:05.071Z</time>
      </trkpt>
      <trkpt lat="50.153689" lon="10.066047">
        <ele>303.137700</ele>
        <time>2026-03-19T12:31:11.670Z</time>
      </trkpt>
      <trkpt lat="50.153703" lon="10.065971">
        <ele>303.207113</ele>
        <time>2026-03-19T12:31:13.475Z</time>
      </trkpt>
      <trkpt lat="50.153677" lon="10.065751">
        <ele>303.403481</ele>
        <time>2026-03-19T12:31:18.403Z</time>
      </trkpt>
      <trkpt lat="50.153579" lon="10.065612">
        <ele>303.584895</ele>
        <time>2026-03-19T12:31:22.410Z</time>
      </trkpt>
      <trkpt lat="50.153441" lon="10.065520">
        <ele>303.790475</ele>
        <time>2026-03-19T12:31:26.753Z</time>
      </trkpt>
      <trkpt lat="50.153163" lon="10.065663">
        <ele>304.191475</ele>
        <time>2026-03-19T12:31:34.961Z</time>
      </trkpt>
      <trkpt lat="50.152833" lon="10.065892">
        <ele>304.686235</ele>
        <time>2026-03-19T12:31:44.487Z</time>
      </trkpt>
      <trkpt lat="50.152646" lon="10.065872">
        <ele>304.958317</ele>
        <time>2026-03-19T12:31:47.391Z</time>
      </trkpt>
      <trkpt lat="50.152547" lon="10.065766">
        <ele>305.145200</ele>
        <time>2026-03-19T12:31:49.171Z</time>
      </trkpt>
      <trkpt lat="50.152476" lon="10.065440">
        <ele>305.488620</ele>
        <time>2026-03-19T12:31:54.567Z</time>
      </trkpt>
      <trkpt lat="50.152340" lon="10.063511">
        <ele>307.424203</ele>
        <time>2026-03-19T12:32:51.334Z</time>
      </trkpt>
      <trkpt lat="50.152220" lon="10.062980">
        <ele>308.632858</ele>
        <time>2026-03-19T12:33:12.824Z</time>
      </trkpt>
      <trkpt lat="50.151832" lon="10.061963">
        <ele>311.963472</ele>
        <time>2026-03-19T12:33:56.381Z</time>
      </trkpt>
      <trkpt lat="50.151665" lon="10.061384">
        <ele>313.750193</ele>
        <time>2026-03-19T12:34:18.687Z</time>
      </trkpt>
      <trkpt lat="50.151640" lon="10.060906">
        <ele>315.099727</ele>
        <time>2026-03-19T12:34:34.665Z</time>
      </trkpt>
      <trkpt lat="50.151779" lon="10.059917">
        <ele>316.293714</ele>
        <time>2026-03-19T12:35:05.719Z</time>
      </trkpt>
      <trkpt lat="50.152137" lon="10.056961">
        <ele>314.998445</ele>
        <time>2026-03-19T12:36:11.283Z</time>
      </trkpt>
      <trkpt lat="50.152245" lon="10.055468">
        <ele>310.713363</ele>
        <time>2026-03-19T12:36:33.431Z</time>
      </trkpt>
      <trkpt lat="50.152364" lon="10.054867">
        <ele>308.023387</ele>
        <time>2026-03-19T12:36:42.052Z</time>
      </trkpt>
      <trkpt lat="50.152587" lon="10.054306">
        <ele>304.606317</ele>
        <time>2026-03-19T12:36:51.185Z</time>
      </trkpt>
      <trkpt lat="50.152765" lon="10.054114">
        <ele>302.858444</ele>
        <time>2026-03-19T12:36:55.879Z</time>
      </trkpt>
      <trkpt lat="50.152613" lon="10.054161">
        <ele>301.606730</ele>
        <time>2026-03-19T12:36:59.207Z</time>
      </trkpt>
      <trkpt lat="50.152468" lon="10.054257">
        <ele>300.334393</ele>
        <time>2026-03-19T12:37:02.605Z</time>
      </trkpt>
      <trkpt lat="50.152065" lon="10.054595">
        <ele>296.638676</ele>
        <time>2026-03-19T12:37:12.927Z</time>
      </trkpt>
      <trkpt lat="50.151938" lon="10.054806">
        <ele>295.472125</ele>
        <time>2026-03-19T12:37:17.359Z</time>
      </trkpt>
      <trkpt lat="50.151713" lon="10.055088">
        <ele>295.355823</ele>
        <time>2026-03-19T12:37:24.421Z</time>
      </trkpt>
      <trkpt lat="50.151862" lon="10.054667">
        <ele>295.231624</ele>
        <time>2026-03-19T12:37:32.951Z</time>
      </trkpt>
      <trkpt lat="50.152005" lon="10.054363">
        <ele>295.134236</ele>
        <time>2026-03-19T12:37:40.520Z</time>
      </trkpt>
      <trkpt lat="50.152399" lon="10.053791">
        <ele>294.917366</ele>
        <time>2026-03-19T12:38:04.969Z</time>
      </trkpt>
      <trkpt lat="50.152690" lon="10.053460">
        <ele>294.772245</ele>
        <time>2026-03-19T12:38:23.480Z</time>
      </trkpt>
      <trkpt lat="50.153211" lon="10.053005">
        <ele>294.035148</ele>
        <time>2026-03-19T12:38:44.244Z</time>
      </trkpt>
      <trkpt lat="50.153265" lon="10.052880">
        <ele>293.913275</ele>
        <time>2026-03-19T12:38:47.153Z</time>
      </trkpt>
      <trkpt lat="50.153266" lon="10.052808">
        <ele>293.855056</ele>
        <time>2026-03-19T12:38:48.543Z</time>
      </trkpt>
      <trkpt lat="50.153236" lon="10.052696">
        <ele>293.756921</ele>
        <time>2026-03-19T12:38:50.927Z</time>
      </trkpt>
      <trkpt lat="50.153100" lon="10.052478">
        <ele>293.510952</ele>
        <time>2026-03-19T12:38:56.630Z</time>
      </trkpt>
      <trkpt lat="50.152807" lon="10.052008">
        <ele>292.980836</ele>
        <time>2026-03-19T12:39:08.002Z</time>
      </trkpt>
      <trkpt lat="50.152599" lon="10.051797">
        <ele>292.667842</ele>
        <time>2026-03-19T12:39:14.097Z</time>
      </trkpt>
      <trkpt lat="50.152516" lon="10.051726">
        <ele>292.548423</ele>
        <time>2026-03-19T12:39:16.364Z</time>
      </trkpt>
      <trkpt lat="50.152150" lon="10.051418">
        <ele>291.440342</ele>
        <time>2026-03-19T12:39:26.174Z</time>
      </trkpt>
      <trkpt lat="50.151840" lon="10.051083">
        <ele>290.375979</ele>
        <time>2026-03-19T12:39:35.825Z</time>
      </trkpt>
      <trkpt lat="50.151654" lon="10.050737">
        <ele>289.559088</ele>
        <time>2026-03-19T12:39:43.878Z</time>
      </trkpt>
      <trkpt lat="50.151105" lon="10.049401">
        <ele>287.234217</ele>
        <time>2026-03-19T12:40:11.792Z</time>
      </trkpt>
      <trkpt lat="50.150500" lon="10.047770">
        <ele>286.374999</ele>
        <time>2026-03-19T12:40:47.074Z</time>
      </trkpt>
      <trkpt lat="50.150424" lon="10.047491">
        <ele>286.236779</ele>
        <time>2026-03-19T12:40:53.669Z</time>
      </trkpt>
      <trkpt lat="50.150376" lon="10.047159">
        <ele>286.294483</ele>
        <time>2026-03-19T12:41:01.540Z</time>
      </trkpt>
      <trkpt lat="50.150348" lon="10.046729">
        <ele>286.836134</ele>
        <time>2026-03-19T12:41:12.289Z</time>
      </trkpt>
      <trkpt lat="50.150403" lon="10.046322">
        <ele>287.357406</ele>
        <time>2026-03-19T12:41:23.595Z</time>
      </trkpt>
      <trkpt lat="50.150589" lon="10.045646">
        <ele>288.279367</ele>
        <time>2026-03-19T12:41:45.264Z</time>
      </trkpt>
      <trkpt lat="50.150777" lon="10.044833">
        <ele>289.362528</ele>
        <time>2026-03-19T12:42:08.949Z</time>
      </trkpt>
      <trkpt lat="50.150843" lon="10.044476">
        <ele>289.823942</ele>
        <time>2026-03-19T12:42:19.104Z</time>
      </trkpt>
      <trkpt lat="50.150857" lon="10.044240">
        <ele>290.113668</ele>
        <time>2026-03-19T12:42:25.578Z</time>
      </trkpt>
      <trkpt lat="50.150754" lon="10.043908">
        <ele>290.564580</ele>
        <time>2026-03-19T12:42:35.668Z</time>
      </trkpt>
      <trkpt lat="50.150452" lon="10.043350">
        <ele>291.457452</ele>
        <time>2026-03-19T12:42:55.819Z</time>
      </trkpt>
      <trkpt lat="50.149489" lon="10.042191">
        <ele>292.734823</ele>
        <time>2026-03-19T12:43:45.225Z</time>
      </trkpt>
      <trkpt lat="50.149159" lon="10.041901">
        <ele>292.365576</ele>
        <time>2026-03-19T12:43:56.789Z</time>
      </trkpt>
      <trkpt lat="50.148953" lon="10.041859">
        <ele>292.163025</ele>
        <time>2026-03-19T12:44:02.663Z</time>
      </trkpt>
      <trkpt lat="50.148671" lon="10.041880">
        <ele>291.887769</ele>
        <time>2026-03-19T12:44:10.323Z</time>
      </trkpt>
      <trkpt lat="50.148465" lon="10.041859">
        <ele>291.686496</ele>
        <time>2026-03-19T12:44:15.824Z</time>
      </trkpt>
      <trkpt lat="50.148100" lon="10.041633">
        <ele>291.297514</ele>
        <time>2026-03-19T12:44:26.151Z</time>
      </trkpt>
      <trkpt lat="50.147678" lon="10.041275">
        <ele>290.734139</ele>
        <time>2026-03-19T12:44:38.897Z</time>
      </trkpt>
      <trkpt lat="50.147495" lon="10.041061">
        <ele>290.465920</ele>
        <time>2026-03-19T12:44:45.122Z</time>
      </trkpt>
      <trkpt lat="50.146979" lon="10.040287">
        <ele>289.626443</ele>
        <time>2026-03-19T12:45:06.646Z</time>
      </trkpt>
      <trkpt lat="50.146756" lon="10.039819">
        <ele>289.175839</ele>
        <time>2026-03-19T12:45:19.315Z</time>
      </trkpt>
      <trkpt lat="50.146616" lon="10.039378">
        <ele>288.680320</ele>
        <time>2026-03-19T12:45:30.385Z</time>
      </trkpt>
      <trkpt lat="50.146553" lon="10.038957">
        <ele>288.245032</ele>
        <time>2026-03-19T12:45:39.134Z</time>
      </trkpt>
      <trkpt lat="50.146386" lon="10.038401">
        <ele>287.626780</ele>
        <time>2026-03-19T12:45:50.376Z</time>
      </trkpt>
      <trkpt lat="50.146276" lon="10.038286">
        <ele>287.418749</ele>
        <time>2026-03-19T12:45:54.048Z</time>
      </trkpt>
      <trkpt lat="50.146126" lon="10.038214">
        <ele>287.172175</ele>
        <time>2026-03-19T12:45:58.338Z</time>
      </trkpt>
      <trkpt lat="50.145690" lon="10.038063">
        <ele>286.470472</ele>
        <time>2026-03-19T12:46:10.085Z</time>
      </trkpt>
      <trkpt lat="50.145532" lon="10.037954">
        <ele>285.686840</ele>
        <time>2026-03-19T12:46:14.430Z</time>
      </trkpt>
      <trkpt lat="50.145251" lon="10.037439">
        <ele>283.254321</ele>
        <time>2026-03-19T12:46:24.952Z</time>
      </trkpt>
      <trkpt lat="50.144918" lon="10.036517">
        <ele>279.448107</ele>
        <time>2026-03-19T12:46:40.672Z</time>
      </trkpt>
      <trkpt lat="50.144636" lon="10.035324">
        <ele>274.313610</ele>
        <time>2026-03-19T12:46:59.453Z</time>
      </trkpt>
      <trkpt lat="50.144487" lon="10.034358">
        <ele>269.336670</ele>
        <time>2026-03-19T12:47:13.982Z</time>
      </trkpt>
      <trkpt lat="50.144425" lon="10.034166">
        <ele>268.259732</ele>
        <time>2026-03-19T12:47:17.078Z</time>
      </trkpt>
      <trkpt lat="50.144422" lon="10.032996">
        <ele>262.399060</ele>
        <time>2026-03-19T12:47:33.565Z</time>
      </trkpt>
      <trkpt lat="50.144275" lon="10.030029">
        <ele>243.751289</ele>
        <time>2026-03-19T12:48:14.342Z</time>
      </trkpt>
      <trkpt lat="50.144458" lon="10.029108">
        <ele>238.799411</ele>
        <time>2026-03-19T12:48:27.972Z</time>
      </trkpt>
      <trkpt lat="50.144896" lon="10.027621">
        <ele>230.395035</ele>
        <time>2026-03-19T12:48:51.592Z</time>
      </trkpt>
      <trkpt lat="50.145181" lon="10.026532">
        <ele>225.818906</ele>
        <time>2026-03-19T12:49:08.893Z</time>
      </trkpt>
      <trkpt lat="50.145183" lon="10.026409">
        <ele>225.349540</ele>
        <time>2026-03-19T12:49:10.691Z</time>
      </trkpt>
      <trkpt lat="50.145280" lon="10.026324">
        <ele>224.687312</ele>
        <time>2026-03-19T12:49:12.122Z</time>
      </trkpt>
      <trkpt lat="50.146040" lon="10.025725">
        <ele>219.618938</ele>
        <time>2026-03-19T12:49:23.395Z</time>
      </trkpt>
      <trkpt lat="50.146197" lon="10.025636">
        <ele>218.740585</ele>
        <time>2026-03-19T12:49:25.665Z</time>
      </trkpt>
      <trkpt lat="50.146271" lon="10.025494">
        <ele>218.155118</ele>
        <time>2026-03-19T12:49:27.262Z</time>
      </trkpt>
      <trkpt lat="50.146422" lon="10.025597">
        <ele>217.332508</ele>
        <time>2026-03-19T12:49:29.473Z</time>
      </trkpt>
      <trkpt lat="50.146569" lon="10.025662">
        <ele>216.569841</ele>
        <time>2026-03-19T12:49:31.532Z</time>
      </trkpt>
      <trkpt lat="50.147260" lon="10.025818">
        <ele>213.084679</ele>
        <time>2026-03-19T12:49:40.985Z</time>
      </trkpt>
      <trkpt lat="50.147305" lon="10.025819">
        <ele>212.860030</ele>
        <time>2026-03-19T12:49:41.596Z</time>
      </trkpt>
      <trkpt lat="50.147372" lon="10.025716">
        <ele>212.390559</ele>
        <time>2026-03-19T12:49:42.880Z</time>
      </trkpt>
      <trkpt lat="50.146796" lon="10.025163">
        <ele>208.843166</ele>
        <time>2026-03-19T12:49:51.690Z</time>
      </trkpt>
      <trkpt lat="50.146423" lon="10.024825">
        <ele>206.416407</ele>
        <time>2026-03-19T12:49:57.223Z</time>
      </trkpt>
      <trkpt lat="50.146268" lon="10.024754">
        <ele>205.507544</ele>
        <time>2026-03-19T12:49:59.324Z</time>
      </trkpt>
      <trkpt lat="50.146161" lon="10.024641">
        <ele>204.780631</ele>
        <time>2026-03-19T12:50:00.986Z</time>
      </trkpt>
      <trkpt lat="50.146133" lon="10.024513">
        <ele>204.292983</ele>
        <time>2026-03-19T12:50:02.099Z</time>
      </trkpt>
      <trkpt lat="50.146140" lon="10.024393">
        <ele>203.858538</ele>
        <time>2026-03-19T12:50:03.106Z</time>
      </trkpt>
      <trkpt lat="50.146319" lon="10.024103">
        <ele>202.406816</ele>
        <time>2026-03-19T12:50:06.448Z</time>
      </trkpt>
      <trkpt lat="50.146337" lon="10.023992">
        <ele>201.993995</ele>
        <time>2026-03-19T12:50:07.404Z</time>
      </trkpt>
      <trkpt lat="50.146324" lon="10.023834">
        <ele>201.419656</ele>
        <time>2026-03-19T12:50:08.737Z</time>
      </trkpt>
      <trkpt lat="50.146766" lon="10.023736">
        <ele>199.764944</ele>
        <time>2026-03-19T12:50:14.674Z</time>
      </trkpt>
      <trkpt lat="50.146870" lon="10.023718">
        <ele>199.553544</ele>
        <time>2026-03-19T12:50:16.107Z</time>
      </trkpt>
      <trkpt lat="50.147076" lon="10.023680">
        <ele>199.134464</ele>
        <time>2026-03-19T12:50:19.065Z</time>
      </trkpt>
      <trkpt lat="50.147585" lon="10.023588">
        <ele>198.099255</ele>
        <time>2026-03-19T12:50:27.212Z</time>
      </trkpt>
      <trkpt lat="50.147954" lon="10.023518">
        <ele>197.348275</ele>
        <time>2026-03-19T12:50:33.765Z</time>
      </trkpt>
      <trkpt lat="50.148150" lon="10.023481">
        <ele>196.949409</ele>
        <time>2026-03-19T12:50:37.257Z</time>
      </trkpt>
      <trkpt lat="50.148248" lon="10.023467">
        <ele>196.750592</ele>
        <time>2026-03-19T12:50:38.975Z</time>
      </trkpt>
      <trkpt lat="50.148622" lon="10.023407">
        <ele>196.857810</ele>
        <time>2026-03-19T12:50:46.619Z</time>
      </trkpt>
      <trkpt lat="50.148757" lon="10.023356">
        <ele>196.969315</ele>
        <time>2026-03-19T12:50:50.234Z</time>
      </trkpt>
      <trkpt lat="50.148958" lon="10.023514">
        <ele>197.149987</ele>
        <time>2026-03-19T12:50:57.444Z</time>
      </trkpt>
      <trkpt lat="50.149097" lon="10.023693">
        <ele>197.294659</ele>
        <time>2026-03-19T12:51:03.393Z</time>
      </trkpt>
      <trkpt lat="50.149053" lon="10.024303">
        <ele>197.610432</ele>
        <time>2026-03-19T12:51:14.430Z</time>
      </trkpt>
      <trkpt lat="50.149051" lon="10.024329">
        <ele>197.623902</ele>
        <time>2026-03-19T12:51:14.871Z</time>
      </trkpt>
      <trkpt lat="50.149027" lon="10.024660">
        <ele>197.795259</ele>
        <time>2026-03-19T12:51:20.395Z</time>
      </trkpt>
      <trkpt lat="50.149124" lon="10.024860">
        <ele>197.924288</ele>
        <time>2026-03-19T12:51:23.921Z</time>
      </trkpt>
      <trkpt lat="50.149511" lon="10.025155">
        <ele>197.792907</ele>
        <time>2026-03-19T12:51:33.368Z</time>
      </trkpt>
      <trkpt lat="50.149684" lon="10.025273">
        <ele>197.607817</ele>
        <time>2026-03-19T12:51:37.576Z</time>
      </trkpt>
      <trkpt lat="50.149747" lon="10.025311">
        <ele>197.541604</ele>
        <time>2026-03-19T12:51:39.072Z</time>
      </trkpt>
      <trkpt lat="50.149795" lon="10.025363">
        <ele>197.484321</ele>
        <time>2026-03-19T12:51:40.511Z</time>
      </trkpt>
      <trkpt lat="50.149981" lon="10.025574">
        <ele>197.258894</ele>
        <time>2026-03-19T12:51:45.060Z</time>
      </trkpt>
      <trkpt lat="50.150138" lon="10.025828">
        <ele>197.037200</ele>
        <time>2026-03-19T12:51:48.862Z</time>
      </trkpt>
      <trkpt lat="50.150305" lon="10.026242">
        <ele>196.729894</ele>
        <time>2026-03-19T12:51:53.775Z</time>
      </trkpt>
      <trkpt lat="50.150372" lon="10.026443">
        <ele>196.587568</ele>
        <time>2026-03-19T12:51:55.920Z</time>
      </trkpt>
      <trkpt lat="50.150447" lon="10.026683">
        <ele>196.419833</ele>
        <time>2026-03-19T12:51:58.403Z</time>
      </trkpt>
      <trkpt lat="50.150529" lon="10.026867">
        <ele>196.266181</ele>
        <time>2026-03-19T12:52:00.451Z</time>
      </trkpt>
      <trkpt lat="50.150597" lon="10.026898">
        <ele>196.127547</ele>
        <time>2026-03-19T12:52:01.478Z</time>
      </trkpt>
      <trkpt lat="50.150811" lon="10.026941">
        <ele>195.705305</ele>
        <time>2026-03-19T12:52:04.819Z</time>
      </trkpt>
      <trkpt lat="50.151533" lon="10.026968">
        <ele>194.291989</ele>
        <time>2026-03-19T12:52:16.541Z</time>
      </trkpt>
      <trkpt lat="50.151686" lon="10.027006">
        <ele>193.988810</ele>
        <time>2026-03-19T12:52:18.870Z</time>
      </trkpt>
      <trkpt lat="50.151647" lon="10.026720">
        <ele>193.622156</ele>
        <time>2026-03-19T12:52:22.772Z</time>
      </trkpt>
      <trkpt lat="50.151581" lon="10.024820">
        <ele>192.312985</ele>
        <time>2026-03-19T12:52:51.485Z</time>
      </trkpt>
      <trkpt lat="50.151400" lon="10.023361">
        <ele>191.755942</ele>
        <time>2026-03-19T12:53:14.107Z</time>
      </trkpt>
      <trkpt lat="50.151188" lon="10.023369">
        <ele>191.778602</ele>
        <time>2026-03-19T12:53:19.281Z</time>
      </trkpt>
      <trkpt lat="50.151043" lon="10.022787">
        <ele>191.934576</ele>
        <time>2026-03-19T12:53:29.994Z</time>
      </trkpt>
      <trkpt lat="50.151090" lon="10.022696">
        <ele>191.963770</ele>
        <time>2026-03-19T12:53:32.231Z</time>
      </trkpt>
      <trkpt lat="50.150973" lon="10.022372">
        <ele>192.056666</ele>
        <time>2026-03-19T12:53:40.621Z</time>
      </trkpt>
      <trkpt lat="50.150965" lon="10.022244">
        <ele>192.088789</ele>
        <time>2026-03-19T12:53:43.387Z</time>
      </trkpt>
      <trkpt lat="50.151019" lon="10.022118">
        <ele>192.126653</ele>
        <time>2026-03-19T12:53:46.600Z</time>
      </trkpt>
      <trkpt lat="50.151053" lon="10.022096">
        <ele>192.141000</ele>
        <time>2026-03-19T12:53:47.814Z</time>
      </trkpt>
      <trkpt lat="50.151091" lon="10.022072">
        <ele>192.156980</ele>
        <time>2026-03-19T12:53:49.191Z</time>
      </trkpt>
      <trkpt lat="50.151228" lon="10.022187">
        <ele>192.217620</ele>
        <time>2026-03-19T12:53:54.382Z</time>
      </trkpt>
      <trkpt lat="50.151453" lon="10.022597">
        <ele>192.352455</ele>
        <time>2026-03-19T12:54:06.250Z</time>
      </trkpt>
      <trkpt lat="50.151558" lon="10.022478">
        <ele>192.403040</ele>
        <time>2026-03-19T12:54:10.941Z</time>
      </trkpt>
      <trkpt lat="50.151546" lon="10.022043">
        <ele>192.732298</ele>
        <time>2026-03-19T12:54:17.532Z</time>
      </trkpt>
      <trkpt lat="50.151617" lon="10.021306">
        <ele>193.370909</ele>
        <time>2026-03-19T12:54:29.410Z</time>
      </trkpt>
      <trkpt lat="50.151715" lon="10.021050">
        <ele>193.626433</ele>
        <time>2026-03-19T12:54:34.067Z</time>
      </trkpt>
      <trkpt lat="50.152133" lon="10.020284">
        <ele>194.488562</ele>
        <time>2026-03-19T12:54:50.832Z</time>
      </trkpt>
      <trkpt lat="50.152166" lon="10.020261">
        <ele>194.536892</ele>
        <time>2026-03-19T12:54:51.858Z</time>
      </trkpt>
      <trkpt lat="50.152283" lon="10.020180">
        <ele>194.708057</ele>
        <time>2026-03-19T12:54:55.590Z</time>
      </trkpt>
      <trkpt lat="50.152438" lon="10.020181">
        <ele>194.954798</ele>
        <time>2026-03-19T12:55:00.049Z</time>
      </trkpt>
      <trkpt lat="50.152798" lon="10.020347">
        <ele>195.679406</ele>
        <time>2026-03-19T12:55:11.627Z</time>
      </trkpt>
      <trkpt lat="50.153149" lon="10.020557">
        <ele>196.405023</ele>
        <time>2026-03-19T12:55:23.586Z</time>
      </trkpt>
      <trkpt lat="50.153441" lon="10.020830">
        <ele>197.062070</ele>
        <time>2026-03-19T12:55:33.624Z</time>
      </trkpt>
      <trkpt lat="50.153892" lon="10.021461">
        <ele>198.231240</ele>
        <time>2026-03-19T12:55:50.042Z</time>
      </trkpt>
      <trkpt lat="50.154139" lon="10.021841">
        <ele>198.567498</ele>
        <time>2026-03-19T12:55:59.357Z</time>
      </trkpt>
      <trkpt lat="50.154505" lon="10.022301">
        <ele>198.972846</ele>
        <time>2026-03-19T12:56:12.956Z</time>
      </trkpt>
      <trkpt lat="50.155134" lon="10.022986">
        <ele>199.634441</ele>
        <time>2026-03-19T12:56:32.266Z</time>
      </trkpt>
      <trkpt lat="50.155776" lon="10.023456">
        <ele>199.394544</ele>
        <time>2026-03-19T12:56:45.224Z</time>
      </trkpt>
      <trkpt lat="50.156296" lon="10.023739">
        <ele>198.848903</ele>
        <time>2026-03-19T12:56:54.690Z</time>
      </trkpt>
      <trkpt lat="50.156588" lon="10.023843">
        <ele>198.552152</ele>
        <time>2026-03-19T12:56:59.909Z</time>
      </trkpt>
      <trkpt lat="50.157168" lon="10.024227">
        <ele>198.047313</ele>
        <time>2026-03-19T12:57:10.979Z</time>
      </trkpt>
      <trkpt lat="50.157880" lon="10.024697">
        <ele>197.935673</ele>
        <time>2026-03-19T12:57:34.238Z</time>
      </trkpt>
      <trkpt lat="50.158428" lon="10.024933">
        <ele>197.853577</ele>
        <time>2026-03-19T12:57:54.380Z</time>
      </trkpt>
      <trkpt lat="50.159499" lon="10.025690">
        <ele>197.801171</ele>
        <time>2026-03-19T12:58:33.815Z</time>
      </trkpt>
      <trkpt lat="50.160332" lon="10.025856">
        <ele>197.794565</ele>
        <time>2026-03-19T12:59:00.237Z</time>
      </trkpt>
      <trkpt lat="50.160978" lon="10.025877">
        <ele>197.374195</ele>
        <time>2026-03-19T12:59:18.909Z</time>
      </trkpt>
      <trkpt lat="50.161746" lon="10.025840">
        <ele>196.784689</ele>
        <time>2026-03-19T12:59:41.799Z</time>
      </trkpt>
      <trkpt lat="50.162236" lon="10.025694">
        <ele>196.414750</ele>
        <time>2026-03-19T12:59:56.617Z</time>
      </trkpt>
      <trkpt lat="50.163062" lon="10.025103">
        <ele>196.469002</ele>
        <time>2026-03-19T13:00:24.619Z</time>
      </trkpt>
      <trkpt lat="50.163535" lon="10.024750">
        <ele>196.500305</ele>
        <time>2026-03-19T13:00:42.158Z</time>
      </trkpt>
      <trkpt lat="50.164016" lon="10.024289">
        <ele>196.412452</ele>
        <time>2026-03-19T13:01:03.595Z</time>
      </trkpt>
      <trkpt lat="50.164316" lon="10.023959">
        <ele>196.226055</ele>
        <time>2026-03-19T13:01:15.151Z</time>
      </trkpt>
      <trkpt lat="50.164580" lon="10.023576">
        <ele>196.043008</ele>
        <time>2026-03-19T13:01:25.958Z</time>
      </trkpt>
      <trkpt lat="50.164724" lon="10.023119">
        <ele>195.877308</ele>
        <time>2026-03-19T13:01:35.522Z</time>
      </trkpt>
      <trkpt lat="50.164971" lon="10.022476">
        <ele>195.633378</ele>
        <time>2026-03-19T13:01:49.602Z</time>
      </trkpt>
      <trkpt lat="50.165253" lon="10.021521">
        <ele>194.729397</ele>
        <time>2026-03-19T13:02:08.389Z</time>
      </trkpt>
      <trkpt lat="50.165427" lon="10.020302">
        <ele>193.601643</ele>
        <time>2026-03-19T13:02:31.729Z</time>
      </trkpt>
      <trkpt lat="50.165620" lon="10.018613">
        <ele>191.993999</ele>
        <time>2026-03-19T13:03:01.945Z</time>
      </trkpt>
      <trkpt lat="50.165673" lon="10.017898">
        <ele>191.306824</ele>
        <time>2026-03-19T13:03:14.608Z</time>
      </trkpt>
      <trkpt lat="50.165806" lon="10.016637">
        <ele>190.328989</ele>
        <time>2026-03-19T13:03:38.766Z</time>
      </trkpt>
      <trkpt lat="50.165873" lon="10.016335">
        <ele>190.266421</ele>
        <time>2026-03-19T13:03:45.157Z</time>
      </trkpt>
      <trkpt lat="50.165945" lon="10.016120">
        <ele>190.218926</ele>
        <time>2026-03-19T13:03:50.034Z</time>
      </trkpt>
      <trkpt lat="50.166053" lon="10.015589">
        <ele>190.109858</ele>
        <time>2026-03-19T13:04:01.289Z</time>
      </trkpt>
      <trkpt lat="50.166125" lon="10.015088">
        <ele>190.009340</ele>
        <time>2026-03-19T13:04:11.591Z</time>
      </trkpt>
      <trkpt lat="50.166197" lon="10.014378">
        <ele>189.868614</ele>
        <time>2026-03-19T13:04:25.949Z</time>
      </trkpt>
      <trkpt lat="50.166267" lon="10.012513">
        <ele>189.542060</ele>
        <time>2026-03-19T13:05:02.872Z</time>
      </trkpt>
      <trkpt lat="50.166269" lon="10.011720">
        <ele>189.404762</ele>
        <time>2026-03-19T13:05:12.682Z</time>
      </trkpt>
      <trkpt lat="50.166272" lon="10.010522">
        <ele>189.462993</ele>
        <time>2026-03-19T13:05:28.101Z</time>
      </trkpt>
      <trkpt lat="50.166258" lon="10.010037">
        <ele>189.520005</ele>
        <time>2026-03-19T13:05:34.737Z</time>
      </trkpt>
      <trkpt lat="50.166212" lon="10.009421">
        <ele>189.592832</ele>
        <time>2026-03-19T13:05:43.516Z</time>
      </trkpt>
      <trkpt lat="50.166157" lon="10.008670">
        <ele>189.681598</ele>
        <time>2026-03-19T13:05:54.374Z</time>
      </trkpt>
      <trkpt lat="50.166063" lon="10.008235">
        <ele>189.685369</ele>
        <time>2026-03-19T13:06:00.900Z</time>
      </trkpt>
      <trkpt lat="50.166021" lon="10.007791">
        <ele>189.685369</ele>
        <time>2026-03-19T13:06:07.083Z</time>
      </trkpt>
      <trkpt lat="50.166003" lon="10.007184">
        <ele>189.685369</ele>
        <time>2026-03-19T13:06:15.583Z</time>
      </trkpt>
      <trkpt lat="50.165911" lon="10.006804">
        <ele>189.685369</ele>
        <time>2026-03-19T13:06:21.231Z</time>
      </trkpt>
      <trkpt lat="50.165897" lon="10.006464">
        <ele>189.685369</ele>
        <time>2026-03-19T13:06:25.911Z</time>
      </trkpt>
      <trkpt lat="50.165837" lon="10.006110">
        <ele>189.685369</ele>
        <time>2026-03-19T13:06:30.883Z</time>
      </trkpt>
      <trkpt lat="50.165812" lon="10.005718">
        <ele>189.685369</ele>
        <time>2026-03-19T13:06:36.177Z</time>
      </trkpt>
      <trkpt lat="50.165900" lon="10.005719">
        <ele>189.685369</ele>
        <time>2026-03-19T13:06:38.012Z</time>
      </trkpt>
      <trkpt lat="50.165871" lon="10.005560">
        <ele>189.685369</ele>
        <time>2026-03-19T13:06:40.093Z</time>
      </trkpt>
    </trkseg>
  </trk>
</gpx>